UAL842 YSSY-KLAX
Flight info
| Callsign | UAL842 |
|---|---|
| Flight time | N/A |
| Altitude | 33000 |
| Route | OLSEM Y193 BNA DCT LAMSI DCT HARVS DCT 20S160E 18S163E 12S170E DCT ATRAS DCT 05S176W/N0500F350 02S170W 03N160W/N0495F370 10N155W 15N150W 21N140W/N0480F390 26N130W DCT FICKY GOATZ2 |
| Aircraft | A35K/H-SDE2E3GHIJ3J4J5LM1ORWXY/LB1D1 |
Departure
| Time | N/A |
|---|---|
| Airport | Sydney Kingsford Smith International Airport (YSSY) |
Arrival
| Time | 2026-05-04 04:25 |
|---|---|
| Airport | Los Angeles International Airport (KLAX) |
| Time | Latitude | Longitude | Altitude | Speed | Heading |
|---|---|---|---|---|---|
| 2026-05-03 20:15 | -22.51151 | 158.32052 | 32977 ft | 548 kts | 30° |
| 2026-05-03 20:15 | -22.44703 | 158.36452 | 32976 ft | 547 kts | 30° |
| 2026-05-03 20:16 | -22.38255 | 158.40847 | 32983 ft | 547 kts | 30° |
| 2026-05-03 20:16 | -22.31840 | 158.45214 | 32984 ft | 547 kts | 30° |
| 2026-05-03 20:17 | -22.25387 | 158.49602 | 32982 ft | 547 kts | 30° |
| 2026-05-03 20:17 | -22.18979 | 158.53956 | 32972 ft | 546 kts | 30° |
| 2026-05-03 20:18 | -22.12515 | 158.58342 | 32974 ft | 546 kts | 30° |
| 2026-05-03 20:18 | -22.06108 | 158.62685 | 32983 ft | 546 kts | 30° |
| 2026-05-03 20:19 | -21.99658 | 158.67052 | 32971 ft | 546 kts | 30° |
| 2026-05-03 20:19 | -21.93250 | 158.71386 | 32975 ft | 546 kts | 30° |
| 2026-05-03 20:20 | -21.86843 | 158.75714 | 32978 ft | 546 kts | 30° |
| 2026-05-03 20:20 | -21.80399 | 158.80064 | 32973 ft | 545 kts | 30° |
| 2026-05-03 20:21 | -21.73994 | 158.84382 | 32968 ft | 545 kts | 30° |
| 2026-05-03 20:21 | -21.67552 | 158.88720 | 32973 ft | 546 kts | 30° |
| 2026-05-03 20:22 | -21.62186 | 158.92330 | 32975 ft | 547 kts | 30° |
| 2026-05-03 20:22 | -21.55732 | 158.96668 | 32963 ft | 547 kts | 30° |
| 2026-05-03 20:23 | -21.49307 | 159.00983 | 32974 ft | 547 kts | 30° |
| 2026-05-03 20:23 | -21.42844 | 159.05317 | 32971 ft | 547 kts | 30° |
| 2026-05-03 20:24 | -21.36379 | 159.09648 | 32972 ft | 546 kts | 30° |
| 2026-05-03 20:24 | -21.29929 | 159.13966 | 32969 ft | 546 kts | 30° |
| 2026-05-03 20:25 | -21.23505 | 159.18261 | 32974 ft | 546 kts | 30° |
| 2026-05-03 20:25 | -21.17033 | 159.22583 | 32971 ft | 547 kts | 30° |
| 2026-05-03 20:26 | -21.10591 | 159.26881 | 32963 ft | 548 kts | 30° |
| 2026-05-03 20:26 | -21.04109 | 159.31202 | 32969 ft | 547 kts | 30° |
| 2026-05-03 20:27 | -20.97669 | 159.35490 | 32966 ft | 547 kts | 30° |
| 2026-05-03 20:27 | -20.91192 | 159.39798 | 32967 ft | 547 kts | 30° |
| 2026-05-03 20:28 | -20.84697 | 159.44114 | 32967 ft | 547 kts | 30° |
| 2026-05-03 20:28 | -20.78251 | 159.48393 | 32969 ft | 547 kts | 30° |
| 2026-05-03 20:29 | -20.71799 | 159.52671 | 32964 ft | 548 kts | 30° |
| 2026-05-03 20:29 | -20.65316 | 159.56965 | 32964 ft | 548 kts | 30° |
| 2026-05-03 20:30 | -20.58809 | 159.61271 | 32961 ft | 548 kts | 30° |
| 2026-05-03 20:30 | -20.52348 | 159.65543 | 32960 ft | 549 kts | 30° |
| 2026-05-03 20:31 | -20.45837 | 159.69842 | 32963 ft | 549 kts | 30° |
| 2026-05-03 20:31 | -20.39325 | 159.74138 | 32963 ft | 549 kts | 30° |
| 2026-05-03 20:32 | -20.32856 | 159.78403 | 32960 ft | 549 kts | 30° |
| 2026-05-03 20:32 | -20.26337 | 159.82695 | 32961 ft | 549 kts | 30° |
| 2026-05-03 20:33 | -20.19834 | 159.86972 | 32970 ft | 549 kts | 30° |
| 2026-05-03 20:33 | -20.13343 | 159.91238 | 32963 ft | 550 kts | 30° |
| 2026-05-03 20:34 | -20.06821 | 159.95519 | 32963 ft | 550 kts | 30° |
| 2026-05-03 20:34 | -20.00602 | 160.00188 | 32965 ft | 551 kts | 43° |
| 2026-05-03 20:35 | -19.95705 | 160.06453 | 32954 ft | 551 kts | 55° |
| 2026-05-03 20:35 | -19.91310 | 160.13148 | 32957 ft | 552 kts | 57° |
| 2026-05-03 20:36 | -19.87006 | 160.19863 | 32960 ft | 552 kts | 56° |
| 2026-05-03 20:36 | -19.82648 | 160.26601 | 32961 ft | 552 kts | 56° |
| 2026-05-03 20:37 | -19.78295 | 160.33273 | 32962 ft | 552 kts | 56° |
| 2026-05-03 20:37 | -19.73901 | 160.39983 | 32956 ft | 552 kts | 56° |
| 2026-05-03 20:38 | -19.69528 | 160.46654 | 32955 ft | 552 kts | 56° |
| 2026-05-03 20:38 | -19.65136 | 160.53348 | 32961 ft | 553 kts | 56° |
| 2026-05-03 20:39 | -19.60721 | 160.60071 | 32960 ft | 554 kts | 56° |
| 2026-05-03 20:39 | -19.56336 | 160.66743 | 32957 ft | 554 kts | 56° |
| 2026-05-03 20:40 | -19.51920 | 160.73452 | 32958 ft | 554 kts | 56° |
| 2026-05-03 20:40 | -19.47528 | 160.80119 | 32958 ft | 554 kts | 56° |
| 2026-05-03 20:41 | -19.43104 | 160.86825 | 32960 ft | 554 kts | 56° |
| 2026-05-03 20:41 | -19.38708 | 160.93483 | 32961 ft | 554 kts | 56° |
| 2026-05-03 20:42 | -19.34276 | 161.00188 | 32960 ft | 555 kts | 56° |
| 2026-05-03 20:42 | -19.29839 | 161.06893 | 32960 ft | 555 kts | 56° |
| 2026-05-03 20:43 | -19.25432 | 161.13545 | 32958 ft | 555 kts | 56° |
| 2026-05-03 20:43 | -19.20989 | 161.20245 | 32958 ft | 555 kts | 56° |
| 2026-05-03 20:44 | -19.16570 | 161.26901 | 32955 ft | 555 kts | 56° |
| 2026-05-03 20:44 | -19.12146 | 161.33558 | 32957 ft | 555 kts | 56° |
| 2026-05-03 20:45 | -19.07696 | 161.40246 | 32959 ft | 554 kts | 56° |
| 2026-05-03 20:45 | -19.03244 | 161.46931 | 32958 ft | 554 kts | 56° |
| 2026-05-03 20:46 | -18.98818 | 161.53568 | 32955 ft | 554 kts | 56° |
| 2026-05-03 20:46 | -18.94368 | 161.60234 | 32955 ft | 554 kts | 56° |
| 2026-05-03 20:47 | -18.89946 | 161.66852 | 32955 ft | 554 kts | 56° |
| 2026-05-03 20:47 | -18.85488 | 161.73517 | 32950 ft | 554 kts | 56° |
| 2026-05-03 20:48 | -18.81068 | 161.80119 | 32955 ft | 554 kts | 56° |
| 2026-05-03 20:48 | -18.76615 | 161.86761 | 32954 ft | 553 kts | 56° |
| 2026-05-03 20:49 | -18.72154 | 161.93409 | 32951 ft | 553 kts | 56° |
| 2026-05-03 20:49 | -18.67728 | 161.99998 | 32952 ft | 554 kts | 56° |
| 2026-05-03 20:50 | -18.63270 | 162.06627 | 32952 ft | 554 kts | 56° |
| 2026-05-03 20:50 | -18.58800 | 162.13269 | 32953 ft | 554 kts | 56° |
| 2026-05-03 20:51 | -18.54360 | 162.19857 | 32948 ft | 553 kts | 56° |
| 2026-05-03 20:51 | -18.49888 | 162.26487 | 32954 ft | 553 kts | 56° |
| 2026-05-03 20:52 | -18.45457 | 162.33049 | 32953 ft | 552 kts | 56° |
| 2026-05-03 20:52 | -18.40996 | 162.39648 | 32950 ft | 552 kts | 56° |
| 2026-05-03 20:53 | -18.36532 | 162.46247 | 32944 ft | 552 kts | 56° |
| 2026-05-03 20:53 | -18.32093 | 162.52801 | 32947 ft | 552 kts | 56° |
| 2026-05-03 20:54 | -18.27622 | 162.59395 | 32947 ft | 552 kts | 56° |
| 2026-05-03 20:54 | -18.20957 | 162.69212 | 32945 ft | 552 kts | 56° |
| 2026-05-03 20:55 | -18.16489 | 162.75786 | 32945 ft | 552 kts | 56° |
| 2026-05-03 20:55 | -18.12015 | 162.82362 | 32947 ft | 552 kts | 56° |
| 2026-05-03 20:56 | -18.07571 | 162.88887 | 32944 ft | 552 kts | 56° |
| 2026-05-03 20:56 | -18.03089 | 162.95460 | 32950 ft | 552 kts | 56° |
| 2026-05-03 20:57 | -17.98587 | 163.02014 | 32941 ft | 552 kts | 53° |
| 2026-05-03 20:57 | -17.93656 | 163.08163 | 32942 ft | 553 kts | 49° |
| 2026-05-03 20:58 | -17.88515 | 163.14195 | 32940 ft | 553 kts | 49° |
| 2026-05-03 20:58 | -17.83456 | 163.20239 | 32940 ft | 553 kts | 50° |
| 2026-05-03 20:59 | -17.78413 | 163.26370 | 32941 ft | 553 kts | 50° |
| 2026-05-03 20:59 | -17.73424 | 163.32466 | 32946 ft | 553 kts | 50° |
| 2026-05-03 21:00 | -17.70061 | 163.36571 | 32928 ft | 553 kts | 50° |
| 2026-05-03 21:00 | -17.63392 | 163.44697 | 32939 ft | 553 kts | 50° |
| 2026-05-03 21:01 | -17.58356 | 163.50823 | 32939 ft | 553 kts | 50° |
| 2026-05-03 21:01 | -17.53355 | 163.56901 | 32936 ft | 553 kts | 50° |
| 2026-05-03 21:02 | -17.48345 | 163.62985 | 32940 ft | 553 kts | 50° |
| 2026-05-03 21:02 | -17.43311 | 163.69092 | 32941 ft | 552 kts | 50° |
| 2026-05-03 21:03 | -17.38275 | 163.75196 | 32938 ft | 552 kts | 50° |
| 2026-05-03 21:03 | -17.33276 | 163.81250 | 32935 ft | 552 kts | 50° |
| 2026-05-03 21:04 | -17.28245 | 163.87336 | 32941 ft | 552 kts | 50° |
| 2026-05-03 21:04 | -17.23209 | 163.93424 | 32936 ft | 552 kts | 50° |
| 2026-05-03 21:05 | -17.18203 | 163.99469 | 32935 ft | 552 kts | 50° |
| 2026-05-03 21:05 | -17.13154 | 164.05561 | 32937 ft | 553 kts | 50° |
| 2026-05-03 21:06 | -17.08137 | 164.11609 | 32933 ft | 553 kts | 50° |
| 2026-05-03 21:06 | -17.03086 | 164.17692 | 32937 ft | 552 kts | 50° |
| 2026-05-03 21:07 | -16.98070 | 164.23729 | 32928 ft | 552 kts | 50° |
| 2026-05-03 21:07 | -16.93023 | 164.29796 | 32933 ft | 552 kts | 50° |
| 2026-05-03 21:08 | -16.88005 | 164.35823 | 32938 ft | 552 kts | 50° |
| 2026-05-03 21:08 | -16.82951 | 164.41889 | 32932 ft | 553 kts | 50° |
| 2026-05-03 21:09 | -16.77890 | 164.47957 | 32925 ft | 552 kts | 50° |
| 2026-05-03 21:09 | -16.72871 | 164.53970 | 32928 ft | 552 kts | 50° |
| 2026-05-03 21:10 | -16.67816 | 164.60021 | 32927 ft | 552 kts | 50° |
| 2026-05-03 21:10 | -16.62770 | 164.66055 | 32926 ft | 552 kts | 50° |
| 2026-05-03 21:11 | -16.57742 | 164.72063 | 32930 ft | 552 kts | 50° |
| 2026-05-03 21:11 | -16.52693 | 164.78091 | 32928 ft | 552 kts | 50° |
| 2026-05-03 21:12 | -16.47631 | 164.84128 | 32915 ft | 552 kts | 50° |
| 2026-05-03 21:12 | -16.42595 | 164.90130 | 32925 ft | 551 kts | 50° |
| 2026-05-03 21:13 | -16.37545 | 164.96143 | 32925 ft | 551 kts | 50° |
| 2026-05-03 21:13 | -16.32522 | 165.02119 | 32923 ft | 551 kts | 50° |
| 2026-05-03 21:14 | -16.27459 | 165.08138 | 32936 ft | 551 kts | 50° |
| 2026-05-03 21:14 | -16.23247 | 165.13141 | 32926 ft | 551 kts | 50° |
| 2026-05-03 21:15 | -16.17355 | 165.20133 | 32911 ft | 552 kts | 50° |
| 2026-05-03 21:15 | -16.13141 | 165.25131 | 32932 ft | 551 kts | 49° |
| 2026-05-03 21:16 | -16.08075 | 165.31134 | 32925 ft | 550 kts | 49° |
| 2026-05-03 21:16 | -16.03045 | 165.37088 | 32914 ft | 550 kts | 49° |
| 2026-05-03 21:17 | -15.97984 | 165.43074 | 32932 ft | 550 kts | 49° |
| 2026-05-03 21:17 | -15.92954 | 165.49020 | 32917 ft | 550 kts | 49° |
| 2026-05-03 21:18 | -15.87882 | 165.55009 | 32926 ft | 550 kts | 49° |
| 2026-05-03 21:18 | -15.82845 | 165.60953 | 32914 ft | 550 kts | 49° |
| 2026-05-03 21:19 | -15.77775 | 165.66930 | 32919 ft | 550 kts | 49° |
| 2026-05-03 21:19 | -15.72711 | 165.72895 | 32918 ft | 550 kts | 49° |
| 2026-05-03 21:20 | -15.67669 | 165.78830 | 32923 ft | 550 kts | 49° |
| 2026-05-03 21:20 | -15.62621 | 165.84768 | 32918 ft | 550 kts | 49° |
| 2026-05-03 21:21 | -15.57549 | 165.90728 | 32916 ft | 550 kts | 49° |
| 2026-05-03 21:21 | -15.52482 | 165.96678 | 32916 ft | 550 kts | 49° |
| 2026-05-03 21:22 | -15.47402 | 166.02638 | 32919 ft | 551 kts | 49° |
| 2026-05-03 21:22 | -15.42345 | 166.08566 | 32915 ft | 551 kts | 49° |
| 2026-05-03 21:23 | -15.37257 | 166.14525 | 32918 ft | 551 kts | 49° |
| 2026-05-03 21:23 | -15.32201 | 166.20444 | 32912 ft | 550 kts | 49° |
| 2026-05-03 21:24 | -15.27114 | 166.26392 | 32917 ft | 550 kts | 49° |
| 2026-05-03 21:24 | -15.22057 | 166.32302 | 32917 ft | 550 kts | 49° |
| 2026-05-03 21:25 | -15.16974 | 166.38238 | 32919 ft | 551 kts | 48° |
| 2026-05-03 21:25 | -15.11903 | 166.44153 | 32925 ft | 551 kts | 48° |
| 2026-05-03 21:26 | -15.06808 | 166.50093 | 32925 ft | 551 kts | 48° |
| 2026-05-03 21:26 | -15.01728 | 166.56011 | 32931 ft | 551 kts | 48° |
| 2026-05-03 21:27 | -14.96622 | 166.61955 | 32927 ft | 551 kts | 48° |
| 2026-05-03 21:27 | -14.91527 | 166.67880 | 32925 ft | 551 kts | 48° |
| 2026-05-03 21:28 | -14.86419 | 166.73819 | 32927 ft | 552 kts | 48° |
| 2026-05-03 21:28 | -14.81331 | 166.79727 | 32927 ft | 552 kts | 48° |
| 2026-05-03 21:29 | -14.76214 | 166.85665 | 32928 ft | 553 kts | 48° |
| 2026-05-03 21:29 | -14.71118 | 166.91574 | 32927 ft | 552 kts | 48° |
| 2026-05-03 21:30 | -14.66003 | 166.97500 | 32923 ft | 552 kts | 48° |
| 2026-05-03 21:30 | -14.60883 | 167.03428 | 32925 ft | 552 kts | 48° |
| 2026-05-03 21:31 | -14.55758 | 167.09356 | 32910 ft | 552 kts | 47° |
| 2026-05-03 21:31 | -14.50664 | 167.15246 | 32920 ft | 553 kts | 47° |
| 2026-05-03 21:32 | -14.45516 | 167.21191 | 32916 ft | 554 kts | 47° |
| 2026-05-03 21:32 | -14.40411 | 167.27084 | 32920 ft | 554 kts | 47° |
| 2026-05-03 21:33 | -14.35271 | 167.33014 | 32919 ft | 554 kts | 47° |
| 2026-05-03 21:33 | -14.30123 | 167.38947 | 32919 ft | 554 kts | 47° |
| 2026-05-03 21:34 | -14.25013 | 167.44832 | 32921 ft | 554 kts | 47° |
| 2026-05-03 21:34 | -14.19842 | 167.50784 | 32918 ft | 553 kts | 47° |
| 2026-05-03 21:35 | -14.14724 | 167.56668 | 32919 ft | 554 kts | 47° |
| 2026-05-03 21:35 | -14.09571 | 167.62591 | 32920 ft | 554 kts | 47° |
| 2026-05-03 21:36 | -14.04424 | 167.68501 | 32903 ft | 554 kts | 47° |
| 2026-05-03 21:36 | -13.99304 | 167.74376 | 32903 ft | 554 kts | 47° |
| 2026-05-03 21:37 | -13.94157 | 167.80278 | 32908 ft | 554 kts | 47° |
| 2026-05-03 21:37 | -13.88997 | 167.86191 | 32914 ft | 554 kts | 47° |
| 2026-05-03 21:38 | -13.83874 | 167.92057 | 32917 ft | 554 kts | 47° |
| 2026-05-03 21:38 | -13.78705 | 167.97972 | 32917 ft | 554 kts | 47° |
| 2026-05-03 21:39 | -13.73586 | 168.03824 | 32913 ft | 553 kts | 47° |
| 2026-05-03 21:39 | -13.68411 | 168.09737 | 32914 ft | 553 kts | 47° |
| 2026-05-03 21:40 | -13.63284 | 168.15591 | 32914 ft | 553 kts | 47° |
| 2026-05-03 21:40 | -13.58114 | 168.21489 | 32914 ft | 553 kts | 47° |
| 2026-05-03 21:41 | -13.52991 | 168.27331 | 32917 ft | 551 kts | 46° |
| 2026-05-03 21:41 | -13.47850 | 168.33189 | 32921 ft | 550 kts | 46° |
| 2026-05-03 21:42 | -13.42747 | 168.38998 | 32914 ft | 550 kts | 46° |
| 2026-05-03 21:42 | -13.37609 | 168.44844 | 32914 ft | 550 kts | 46° |
| 2026-05-03 21:43 | -13.32474 | 168.50683 | 32913 ft | 550 kts | 46° |
| 2026-05-03 21:43 | -13.27338 | 168.56518 | 32915 ft | 550 kts | 46° |
| 2026-05-03 21:44 | -13.22227 | 168.62322 | 32906 ft | 549 kts | 46° |
| 2026-05-03 21:44 | -13.17097 | 168.68143 | 32911 ft | 548 kts | 46° |
| 2026-05-03 21:45 | -13.12006 | 168.73916 | 32914 ft | 548 kts | 46° |
| 2026-05-03 21:45 | -13.06881 | 168.79724 | 32914 ft | 548 kts | 46° |
| 2026-05-03 21:46 | -13.01754 | 168.85530 | 32914 ft | 548 kts | 46° |
| 2026-05-03 21:46 | -12.96655 | 168.91300 | 32911 ft | 548 kts | 46° |
| 2026-05-03 21:47 | -12.91521 | 168.97107 | 32914 ft | 548 kts | 46° |
| 2026-05-03 21:47 | -12.86431 | 169.02859 | 32908 ft | 547 kts | 46° |
| 2026-05-03 21:48 | -12.81312 | 169.08641 | 32908 ft | 546 kts | 46° |
| 2026-05-03 21:48 | -12.76230 | 169.14377 | 32908 ft | 546 kts | 46° |
| 2026-05-03 21:49 | -12.71116 | 169.20146 | 32908 ft | 546 kts | 46° |
| 2026-05-03 21:49 | -12.65997 | 169.25916 | 32908 ft | 546 kts | 46° |
| 2026-05-03 21:50 | -12.60922 | 169.31633 | 32908 ft | 546 kts | 46° |
| 2026-05-03 21:50 | -12.55805 | 169.37394 | 32898 ft | 546 kts | 46° |
| 2026-05-03 21:51 | -12.50696 | 169.43143 | 32909 ft | 543 kts | 46° |
| 2026-05-03 21:51 | -12.45643 | 169.48825 | 32908 ft | 542 kts | 46° |
| 2026-05-03 21:52 | -12.40549 | 169.54548 | 32907 ft | 542 kts | 46° |
| 2026-05-03 21:52 | -12.35485 | 169.60235 | 32909 ft | 542 kts | 46° |
| 2026-05-03 21:53 | -12.30391 | 169.65952 | 32909 ft | 542 kts | 46° |
| 2026-05-03 21:53 | -12.25336 | 169.71622 | 32906 ft | 542 kts | 46° |
| 2026-05-03 21:54 | -12.20243 | 169.77330 | 32904 ft | 542 kts | 46° |
| 2026-05-03 21:54 | -12.15167 | 169.83019 | 32910 ft | 538 kts | 46° |
| 2026-05-03 21:55 | -12.10150 | 169.88636 | 32909 ft | 537 kts | 46° |
| 2026-05-03 21:55 | -12.05096 | 169.94290 | 32909 ft | 537 kts | 46° |
| 2026-05-03 21:56 | -12.00083 | 169.99896 | 32903 ft | 537 kts | 46° |
| 2026-05-03 21:56 | -11.95054 | 170.05578 | 32903 ft | 537 kts | 47° |
| 2026-05-03 21:57 | -11.90096 | 170.11244 | 32905 ft | 538 kts | 47° |
| 2026-05-03 21:57 | -11.85098 | 170.16948 | 32904 ft | 537 kts | 46° |
| 2026-05-03 21:58 | -11.80130 | 170.22602 | 32906 ft | 536 kts | 46° |
| 2026-05-03 21:58 | -11.75135 | 170.28277 | 32906 ft | 536 kts | 46° |
| 2026-05-03 21:59 | -11.70185 | 170.33899 | 32906 ft | 535 kts | 46° |
| 2026-05-03 21:59 | -11.65192 | 170.39565 | 32906 ft | 535 kts | 46° |
| 2026-05-03 22:00 | -11.60198 | 170.45230 | 32909 ft | 536 kts | 46° |
| 2026-05-03 22:00 | -11.55238 | 170.50853 | 32908 ft | 536 kts | 46° |
| 2026-05-03 22:01 | -11.50243 | 170.56513 | 32903 ft | 535 kts | 46° |
| 2026-05-03 22:01 | -11.45268 | 170.62147 | 32909 ft | 533 kts | 46° |
| 2026-05-03 22:02 | -11.40325 | 170.67742 | 32904 ft | 533 kts | 46° |
| 2026-05-03 22:02 | -11.35363 | 170.73356 | 32902 ft | 533 kts | 46° |
| 2026-05-03 22:03 | -11.30422 | 170.78942 | 32904 ft | 533 kts | 46° |
| 2026-05-03 22:03 | -11.25451 | 170.84558 | 32906 ft | 533 kts | 46° |
| 2026-05-03 22:04 | -11.21313 | 170.89231 | 32903 ft | 533 kts | 46° |
| 2026-05-03 22:04 | -11.15534 | 170.95755 | 32894 ft | 532 kts | 46° |
| 2026-05-03 22:05 | -11.11408 | 171.00410 | 32902 ft | 530 kts | 46° |
| 2026-05-03 22:05 | -11.06455 | 171.05994 | 32902 ft | 529 kts | 46° |
| 2026-05-03 22:06 | -11.01538 | 171.11535 | 32901 ft | 529 kts | 46° |
| 2026-05-03 22:06 | -10.96584 | 171.17114 | 32905 ft | 529 kts | 46° |
| 2026-05-03 22:07 | -10.91666 | 171.22651 | 32902 ft | 529 kts | 46° |
| 2026-05-03 22:07 | -10.86719 | 171.28216 | 32903 ft | 529 kts | 46° |
| 2026-05-03 22:08 | -10.81773 | 171.33779 | 32900 ft | 529 kts | 46° |
| 2026-05-03 22:08 | -10.76857 | 171.39303 | 32900 ft | 529 kts | 46° |
| 2026-05-03 22:09 | -10.71913 | 171.44858 | 32902 ft | 529 kts | 46° |
| 2026-05-03 22:10 | -10.64523 | 171.53153 | 32902 ft | 529 kts | 46° |
| 2026-05-03 22:10 | -10.59571 | 171.58709 | 32899 ft | 529 kts | 46° |
| 2026-05-03 22:11 | -10.54663 | 171.64212 | 32895 ft | 529 kts | 46° |
| 2026-05-03 22:11 | -10.49702 | 171.69773 | 32897 ft | 530 kts | 46° |
| 2026-05-03 22:12 | -10.44732 | 171.75339 | 32895 ft | 531 kts | 45° |
| 2026-05-03 22:12 | -10.39772 | 171.80891 | 32901 ft | 533 kts | 45° |
| 2026-05-03 22:13 | -10.34786 | 171.86469 | 32895 ft | 533 kts | 45° |
| 2026-05-03 22:13 | -10.29803 | 171.92043 | 32897 ft | 533 kts | 45° |
| 2026-05-03 22:14 | -10.24839 | 171.97591 | 32902 ft | 533 kts | 45° |
| 2026-05-03 22:14 | -10.19849 | 172.03167 | 32901 ft | 533 kts | 45° |
| 2026-05-03 22:15 | -10.14844 | 172.08758 | 32902 ft | 533 kts | 45° |
| 2026-05-03 22:15 | -10.09884 | 172.14292 | 32896 ft | 532 kts | 45° |
| 2026-05-03 22:16 | -10.04893 | 172.19860 | 32903 ft | 531 kts | 45° |
| 2026-05-03 22:16 | -9.99935 | 172.25388 | 32900 ft | 531 kts | 45° |
| 2026-05-03 22:17 | -9.94944 | 172.30951 | 32900 ft | 531 kts | 45° |
| 2026-05-03 22:17 | -9.89992 | 172.36468 | 32899 ft | 531 kts | 45° |
| 2026-05-03 22:18 | -9.85004 | 172.42021 | 32912 ft | 531 kts | 45° |
| 2026-05-03 22:18 | -9.80700 | 172.48136 | 32902 ft | 535 kts | 62° |
| 2026-05-03 22:19 | -9.77697 | 172.55021 | 32904 ft | 536 kts | 66° |
| 2026-05-03 22:19 | -9.74937 | 172.62014 | 32904 ft | 537 kts | 67° |
| 2026-05-03 22:20 | -9.72183 | 172.69051 | 32902 ft | 535 kts | 67° |
| 2026-05-03 22:20 | -9.69407 | 172.76059 | 32906 ft | 535 kts | 67° |
| 2026-05-03 22:21 | -9.66612 | 172.83064 | 32906 ft | 535 kts | 67° |
| 2026-05-03 22:21 | -9.63834 | 172.90012 | 32908 ft | 535 kts | 67° |
| 2026-05-03 22:22 | -9.61034 | 172.97013 | 32910 ft | 535 kts | 67° |
| 2026-05-03 22:22 | -9.58232 | 173.04015 | 32909 ft | 535 kts | 67° |
| 2026-05-03 22:23 | -9.55444 | 173.10980 | 32903 ft | 535 kts | 67° |
| 2026-05-03 22:23 | -9.52642 | 173.17974 | 32902 ft | 535 kts | 67° |
| 2026-05-03 22:24 | -9.49861 | 173.24912 | 32905 ft | 534 kts | 67° |
| 2026-05-03 22:24 | -9.47063 | 173.31888 | 32915 ft | 534 kts | 67° |
| 2026-05-03 22:25 | -9.44262 | 173.38866 | 32910 ft | 534 kts | 67° |
| 2026-05-03 22:25 | -9.41480 | 173.45793 | 32905 ft | 534 kts | 67° |
| 2026-05-03 22:26 | -9.38678 | 173.52764 | 32907 ft | 533 kts | 67° |
| 2026-05-03 22:26 | -9.35881 | 173.59720 | 32908 ft | 532 kts | 67° |
| 2026-05-03 22:27 | -9.33105 | 173.66620 | 32909 ft | 531 kts | 67° |
| 2026-05-03 22:27 | -9.30313 | 173.73553 | 32907 ft | 531 kts | 67° |
| 2026-05-03 22:28 | -9.27517 | 173.80493 | 32908 ft | 531 kts | 67° |
| 2026-05-03 22:28 | -9.24738 | 173.87386 | 32906 ft | 531 kts | 67° |
| 2026-05-03 22:29 | -9.21935 | 173.94332 | 32912 ft | 531 kts | 67° |
| 2026-05-03 22:29 | -9.19157 | 174.01213 | 32910 ft | 530 kts | 67° |
| 2026-05-03 22:30 | -9.16360 | 174.08138 | 32913 ft | 530 kts | 67° |
| 2026-05-03 22:30 | -9.13563 | 174.15057 | 32914 ft | 530 kts | 67° |
| 2026-05-03 22:31 | -9.10762 | 174.21982 | 32914 ft | 530 kts | 67° |
| 2026-05-03 22:31 | -9.07979 | 174.28858 | 32917 ft | 530 kts | 67° |
| 2026-05-03 22:32 | -9.05194 | 174.35736 | 32914 ft | 530 kts | 67° |
| 2026-05-03 22:32 | -9.02393 | 174.42649 | 32911 ft | 529 kts | 67° |
| 2026-05-03 22:33 | -8.99598 | 174.49543 | 32914 ft | 528 kts | 67° |
| 2026-05-03 22:33 | -8.96822 | 174.56385 | 32917 ft | 528 kts | 67° |
| 2026-05-03 22:34 | -8.94022 | 174.63282 | 32914 ft | 528 kts | 67° |
| 2026-05-03 22:34 | -8.91239 | 174.70132 | 32915 ft | 528 kts | 67° |
| 2026-05-03 22:35 | -8.88439 | 174.77023 | 32914 ft | 529 kts | 67° |
| 2026-05-03 22:35 | -8.85655 | 174.83867 | 32920 ft | 529 kts | 67° |
| 2026-05-03 22:36 | -8.82854 | 174.90750 | 32916 ft | 529 kts | 67° |
| 2026-05-03 22:36 | -8.80050 | 174.97637 | 32914 ft | 529 kts | 67° |
| 2026-05-03 22:37 | -8.77250 | 175.04510 | 32916 ft | 529 kts | 67° |
| 2026-05-03 22:37 | -8.74439 | 175.11406 | 32915 ft | 530 kts | 66° |
| 2026-05-03 22:38 | -8.71640 | 175.18267 | 32918 ft | 530 kts | 66° |
| 2026-05-03 22:38 | -8.68824 | 175.25165 | 32917 ft | 530 kts | 66° |
| 2026-05-03 22:39 | -8.66007 | 175.32063 | 32916 ft | 530 kts | 67° |
| 2026-05-03 22:39 | -8.63209 | 175.38912 | 32916 ft | 530 kts | 67° |
| 2026-05-03 22:40 | -8.60385 | 175.45819 | 32913 ft | 530 kts | 66° |
| 2026-05-03 22:40 | -8.57583 | 175.52668 | 32917 ft | 530 kts | 66° |
| 2026-05-03 22:41 | -8.54766 | 175.59549 | 32914 ft | 530 kts | 66° |
| 2026-05-03 22:41 | -8.51960 | 175.66401 | 32914 ft | 529 kts | 66° |
| 2026-05-03 22:42 | -8.49134 | 175.73296 | 32914 ft | 529 kts | 66° |
| 2026-05-03 22:42 | -8.46331 | 175.80131 | 32915 ft | 529 kts | 66° |
| 2026-05-03 22:43 | -8.43499 | 175.87034 | 32911 ft | 531 kts | 66° |
| 2026-05-03 22:43 | -8.40666 | 175.93934 | 32913 ft | 531 kts | 66° |
| 2026-05-03 22:44 | -8.37847 | 176.00797 | 32911 ft | 532 kts | 66° |
| 2026-05-03 22:44 | -8.35006 | 176.07709 | 32914 ft | 532 kts | 66° |
| 2026-05-03 22:45 | -8.32181 | 176.14579 | 32915 ft | 532 kts | 66° |
| 2026-05-03 22:45 | -8.29340 | 176.21484 | 32911 ft | 529 kts | 66° |
| 2026-05-03 22:46 | -8.26538 | 176.28291 | 32912 ft | 527 kts | 66° |
| 2026-05-03 22:46 | -8.23717 | 176.35139 | 32912 ft | 526 kts | 66° |
| 2026-05-03 22:47 | -8.20918 | 176.41930 | 32909 ft | 527 kts | 66° |
| 2026-05-03 22:47 | -8.18096 | 176.48774 | 32908 ft | 526 kts | 66° |
| 2026-05-03 22:48 | -8.15293 | 176.55567 | 32909 ft | 526 kts | 66° |
| 2026-05-03 22:48 | -8.12476 | 176.62392 | 32908 ft | 526 kts | 66° |
| 2026-05-03 22:49 | -8.09654 | 176.69223 | 32908 ft | 526 kts | 66° |
| 2026-05-03 22:49 | -8.06853 | 176.76003 | 32907 ft | 526 kts | 66° |
| 2026-05-03 22:50 | -8.04029 | 176.82832 | 32906 ft | 526 kts | 66° |
| 2026-05-03 22:50 | -8.01204 | 176.89661 | 32909 ft | 526 kts | 66° |
| 2026-05-03 22:51 | -7.98397 | 176.96441 | 32906 ft | 526 kts | 66° |
| 2026-05-03 22:51 | -7.95560 | 177.03292 | 32899 ft | 528 kts | 66° |
| 2026-05-03 22:52 | -7.92736 | 177.10106 | 32905 ft | 528 kts | 66° |
| 2026-05-03 22:52 | -7.90379 | 177.15790 | 32906 ft | 527 kts | 66° |
| 2026-05-03 22:53 | -7.87544 | 177.22626 | 32902 ft | 527 kts | 66° |
| 2026-05-03 22:53 | -7.84709 | 177.29458 | 32904 ft | 527 kts | 66° |
| 2026-05-03 22:54 | -7.81886 | 177.36257 | 32904 ft | 528 kts | 66° |
| 2026-05-03 22:54 | -7.79055 | 177.43071 | 32903 ft | 528 kts | 66° |
| 2026-05-03 22:55 | -7.76208 | 177.49921 | 32899 ft | 528 kts | 66° |
| 2026-05-03 22:55 | -7.73366 | 177.56755 | 32900 ft | 528 kts | 66° |
| 2026-05-03 22:56 | -7.70538 | 177.63551 | 32901 ft | 528 kts | 66° |
| 2026-05-03 22:56 | -7.67686 | 177.70403 | 32901 ft | 528 kts | 66° |
| 2026-05-03 22:57 | -7.64854 | 177.77203 | 32904 ft | 528 kts | 66° |
| 2026-05-03 22:57 | -7.61995 | 177.84062 | 32907 ft | 528 kts | 66° |
| 2026-05-03 22:58 | -7.59161 | 177.90860 | 32902 ft | 528 kts | 66° |
| 2026-05-03 22:58 | -7.56305 | 177.97707 | 32902 ft | 527 kts | 66° |
| 2026-05-03 22:59 | -7.53482 | 178.04472 | 32903 ft | 526 kts | 66° |
| 2026-05-03 22:59 | -7.50645 | 178.11267 | 32903 ft | 526 kts | 66° |
| 2026-05-03 23:00 | -7.47798 | 178.18080 | 32892 ft | 526 kts | 66° |
| 2026-05-03 23:00 | -7.44967 | 178.24852 | 32906 ft | 526 kts | 66° |
| 2026-05-03 23:01 | -7.42118 | 178.31665 | 32905 ft | 526 kts | 66° |
| 2026-05-03 23:01 | -7.39275 | 178.38461 | 32906 ft | 526 kts | 66° |
| 2026-05-03 23:02 | -7.36426 | 178.45268 | 32906 ft | 526 kts | 66° |
| 2026-05-03 23:02 | -7.33587 | 178.52046 | 32903 ft | 526 kts | 66° |
| 2026-05-03 23:03 | -7.30743 | 178.58834 | 32906 ft | 526 kts | 66° |
| 2026-05-03 23:03 | -7.27900 | 178.65615 | 32906 ft | 526 kts | 66° |
| 2026-05-03 23:04 | -7.25048 | 178.72415 | 32903 ft | 526 kts | 66° |
| 2026-05-03 23:04 | -7.22214 | 178.79171 | 32903 ft | 526 kts | 66° |
| 2026-05-03 23:05 | -7.19360 | 178.85968 | 32900 ft | 526 kts | 66° |
| 2026-05-03 23:05 | -7.16524 | 178.92721 | 32900 ft | 526 kts | 66° |
| 2026-05-03 23:06 | -7.13665 | 178.99526 | 32905 ft | 526 kts | 66° |
| 2026-05-03 23:06 | -7.10807 | 179.06324 | 32903 ft | 526 kts | 66° |
| 2026-05-03 23:07 | -7.07951 | 179.13114 | 32901 ft | 526 kts | 66° |
| 2026-05-03 23:07 | -7.05106 | 179.19874 | 32900 ft | 526 kts | 66° |
| 2026-05-03 23:08 | -7.02259 | 179.26637 | 32904 ft | 526 kts | 66° |
| 2026-05-03 23:08 | -6.99396 | 179.33435 | 32903 ft | 526 kts | 66° |
| 2026-05-03 23:09 | -6.96527 | 179.40243 | 32906 ft | 527 kts | 66° |
| 2026-05-03 23:09 | -6.93682 | 179.46992 | 32906 ft | 527 kts | 66° |
| 2026-05-03 23:10 | -6.90818 | 179.53783 | 32901 ft | 526 kts | 66° |
| 2026-05-03 23:10 | -6.87950 | 179.60579 | 32903 ft | 526 kts | 66° |
| 2026-05-03 23:11 | -6.85105 | 179.67319 | 32903 ft | 527 kts | 66° |
| 2026-05-03 23:11 | -6.82233 | 179.74112 | 32906 ft | 525 kts | 66° |
| 2026-05-03 23:12 | -6.79377 | 179.80872 | 32902 ft | 524 kts | 66° |
| 2026-05-03 23:12 | -6.76527 | 179.87620 | 32903 ft | 524 kts | 66° |
| 2026-05-03 23:13 | -6.73688 | 179.94332 | 32901 ft | 523 kts | 66° |
| 2026-05-03 23:13 | -6.70828 | -179.98907 | 32910 ft | 524 kts | 66° |
| 2026-05-03 23:14 | -6.67978 | -179.92174 | 32903 ft | 528 kts | 66° |
| 2026-05-03 23:14 | -6.65091 | -179.85359 | 32903 ft | 528 kts | 66° |
| 2026-05-03 23:15 | -6.62221 | -179.78585 | 32903 ft | 528 kts | 66° |
| 2026-05-03 23:15 | -6.59336 | -179.71777 | 32903 ft | 528 kts | 66° |
| 2026-05-03 23:16 | -6.56450 | -179.64972 | 32902 ft | 528 kts | 66° |
| 2026-05-03 23:16 | -6.53581 | -179.58209 | 32904 ft | 528 kts | 66° |
| 2026-05-03 23:17 | -6.50687 | -179.51389 | 32903 ft | 528 kts | 66° |
| 2026-05-03 23:17 | -6.47811 | -179.44616 | 32904 ft | 528 kts | 66° |
| 2026-05-03 23:18 | -6.44920 | -179.37809 | 32900 ft | 529 kts | 66° |
| 2026-05-03 23:18 | -6.42023 | -179.30991 | 32900 ft | 529 kts | 66° |
| 2026-05-03 23:19 | -6.39134 | -179.24194 | 32900 ft | 529 kts | 66° |
| 2026-05-03 23:19 | -6.36241 | -179.17391 | 32900 ft | 529 kts | 66° |
| 2026-05-03 23:20 | -6.33362 | -179.10624 | 32898 ft | 529 kts | 66° |
| 2026-05-03 23:20 | -6.30459 | -179.03806 | 32898 ft | 529 kts | 66° |
| 2026-05-03 23:21 | -6.27561 | -178.97001 | 32898 ft | 529 kts | 66° |
| 2026-05-03 23:21 | -6.24681 | -178.90240 | 32897 ft | 529 kts | 66° |
| 2026-05-03 23:22 | -6.20331 | -178.80033 | 32897 ft | 528 kts | 66° |
| 2026-05-03 23:22 | -6.17450 | -178.73279 | 32897 ft | 528 kts | 66° |
| 2026-05-03 23:23 | -6.14543 | -178.66463 | 32898 ft | 528 kts | 66° |
| 2026-05-03 23:23 | -6.11640 | -178.59660 | 32897 ft | 528 kts | 66° |
| 2026-05-03 23:24 | -6.08760 | -178.52917 | 32898 ft | 528 kts | 66° |
| 2026-05-03 23:24 | -6.05855 | -178.46115 | 32897 ft | 528 kts | 66° |
| 2026-05-03 23:25 | -6.02966 | -178.39354 | 32897 ft | 528 kts | 66° |
| 2026-05-03 23:25 | -6.00060 | -178.32556 | 32897 ft | 529 kts | 66° |
| 2026-05-03 23:26 | -5.97156 | -178.25764 | 32895 ft | 529 kts | 66° |
| 2026-05-03 23:26 | -5.94268 | -178.19013 | 32894 ft | 529 kts | 66° |
| 2026-05-03 23:27 | -5.91355 | -178.12208 | 32893 ft | 528 kts | 66° |
| 2026-05-03 23:27 | -5.88464 | -178.05455 | 32893 ft | 529 kts | 66° |
| 2026-05-03 23:28 | -5.85536 | -177.98619 | 32892 ft | 529 kts | 66° |
| 2026-05-03 23:28 | -5.82642 | -177.91864 | 32892 ft | 529 kts | 66° |
| 2026-05-03 23:29 | -5.79723 | -177.85055 | 32889 ft | 529 kts | 66° |
| 2026-05-03 23:29 | -5.76819 | -177.78280 | 32889 ft | 529 kts | 66° |
| 2026-05-03 23:30 | -5.73899 | -177.71474 | 32892 ft | 529 kts | 66° |
| 2026-05-03 23:30 | -5.70996 | -177.64711 | 32890 ft | 530 kts | 66° |
| 2026-05-03 23:31 | -5.68071 | -177.57896 | 32889 ft | 531 kts | 66° |
| 2026-05-03 23:31 | -5.65161 | -177.51119 | 32892 ft | 531 kts | 66° |
| 2026-05-03 23:32 | -5.62236 | -177.44312 | 32886 ft | 530 kts | 66° |
| 2026-05-03 23:32 | -5.59306 | -177.37493 | 32886 ft | 530 kts | 66° |
| 2026-05-03 23:33 | -5.56380 | -177.30688 | 32887 ft | 531 kts | 66° |
| 2026-05-03 23:33 | -5.53468 | -177.23918 | 32886 ft | 531 kts | 66° |
| 2026-05-03 23:34 | -5.50520 | -177.17064 | 32886 ft | 531 kts | 66° |
| 2026-05-03 23:34 | -5.47600 | -177.10280 | 32886 ft | 531 kts | 66° |
| 2026-05-03 23:35 | -5.44666 | -177.03466 | 32883 ft | 531 kts | 66° |
| 2026-05-03 23:35 | -5.41746 | -176.96685 | 32883 ft | 531 kts | 66° |
| 2026-05-03 23:36 | -5.38805 | -176.89859 | 32886 ft | 531 kts | 66° |
| 2026-05-03 23:36 | -5.35883 | -176.83081 | 32886 ft | 532 kts | 66° |
| 2026-05-03 23:37 | -5.32944 | -176.76263 | 32887 ft | 532 kts | 66° |
| 2026-05-03 23:37 | -5.30010 | -176.69457 | 32886 ft | 530 kts | 66° |
| 2026-05-03 23:38 | -5.27093 | -176.62698 | 32885 ft | 530 kts | 66° |
| 2026-05-03 23:38 | -5.24638 | -176.57011 | 32885 ft | 530 kts | 66° |
| 2026-05-03 23:39 | -5.21725 | -176.50263 | 32883 ft | 530 kts | 66° |
| 2026-05-03 23:39 | -5.18786 | -176.43459 | 32878 ft | 530 kts | 66° |
| 2026-05-03 23:40 | -5.15845 | -176.36652 | 32881 ft | 530 kts | 66° |
| 2026-05-03 23:40 | -5.12926 | -176.29897 | 32880 ft | 530 kts | 66° |
| 2026-05-03 23:41 | -5.09984 | -176.23093 | 32880 ft | 530 kts | 66° |
| 2026-05-03 23:41 | -5.07059 | -176.16328 | 32872 ft | 530 kts | 66° |
| 2026-05-03 23:42 | -5.04107 | -176.09506 | 32876 ft | 533 kts | 66° |
| 2026-05-03 23:42 | -5.01151 | -176.02675 | 32902 ft | 533 kts | 66° |
| 2026-05-03 23:43 | -4.99693 | -175.99308 | 33224 ft | 530 kts | 66° |
| 2026-05-03 23:43 | -4.98158 | -175.95954 | 33588 ft | 527 kts | 64° |
| 2026-05-03 23:43 | -4.96530 | -175.92653 | 33859 ft | 525 kts | 63° |
| 2026-05-03 23:43 | -4.94888 | -175.89421 | 34062 ft | 525 kts | 62° |
| 2026-05-03 23:44 | -4.93222 | -175.86159 | 34282 ft | 524 kts | 62° |
| 2026-05-03 23:44 | -4.91569 | -175.82901 | 34515 ft | 522 kts | 63° |
| 2026-05-03 23:44 | -4.89933 | -175.79646 | 34745 ft | 521 kts | 63° |
| 2026-05-03 23:44 | -4.88311 | -175.76395 | 34857 ft | 522 kts | 63° |
| 2026-05-03 23:45 | -4.85069 | -175.69857 | 34872 ft | 527 kts | 63° |
| 2026-05-03 23:45 | -4.81800 | -175.63250 | 34873 ft | 526 kts | 63° |
| 2026-05-03 23:46 | -4.78562 | -175.56707 | 34873 ft | 526 kts | 63° |
| 2026-05-03 23:46 | -4.75300 | -175.50123 | 34873 ft | 526 kts | 63° |
| 2026-05-03 23:47 | -4.72057 | -175.43582 | 34874 ft | 526 kts | 63° |
| 2026-05-03 23:47 | -4.68795 | -175.37004 | 34873 ft | 525 kts | 63° |
| 2026-05-03 23:48 | -4.65533 | -175.30428 | 34872 ft | 525 kts | 63° |
| 2026-05-03 23:48 | -4.62292 | -175.23894 | 34875 ft | 525 kts | 63° |
| 2026-05-03 23:49 | -4.59055 | -175.17372 | 34872 ft | 525 kts | 63° |
| 2026-05-03 23:49 | -4.55795 | -175.10804 | 34874 ft | 525 kts | 63° |
| 2026-05-03 23:50 | -4.52549 | -175.04265 | 34877 ft | 522 kts | 63° |
| 2026-05-03 23:50 | -4.49316 | -174.97759 | 34873 ft | 521 kts | 63° |
| 2026-05-03 23:51 | -4.46099 | -174.91283 | 34873 ft | 521 kts | 63° |
| 2026-05-03 23:51 | -4.42884 | -174.84812 | 34873 ft | 521 kts | 63° |
| 2026-05-03 23:52 | -4.39640 | -174.78286 | 34870 ft | 521 kts | 63° |
| 2026-05-03 23:52 | -4.36420 | -174.71809 | 34870 ft | 521 kts | 63° |
| 2026-05-03 23:53 | -4.33182 | -174.65298 | 34869 ft | 521 kts | 63° |
| 2026-05-03 23:53 | -4.29952 | -174.58805 | 34870 ft | 524 kts | 63° |
| 2026-05-03 23:54 | -4.26687 | -174.52245 | 34870 ft | 525 kts | 63° |
| 2026-05-03 23:54 | -4.23445 | -174.45730 | 34870 ft | 525 kts | 63° |
| 2026-05-03 23:55 | -4.20181 | -174.39174 | 34870 ft | 525 kts | 63° |
| 2026-05-03 23:55 | -4.16923 | -174.32632 | 34866 ft | 525 kts | 63° |
| 2026-05-03 23:56 | -4.13672 | -174.26105 | 34865 ft | 526 kts | 63° |
| 2026-05-03 23:56 | -4.10407 | -174.19549 | 34867 ft | 524 kts | 63° |
| 2026-05-03 23:57 | -4.07150 | -174.13013 | 34868 ft | 524 kts | 63° |
| 2026-05-03 23:57 | -4.03906 | -174.06505 | 34867 ft | 524 kts | 63° |
| 2026-05-03 23:58 | -4.00654 | -173.99982 | 34868 ft | 524 kts | 63° |
| 2026-05-03 23:58 | -3.97415 | -173.93487 | 34867 ft | 524 kts | 63° |
| 2026-05-03 23:59 | -3.94159 | -173.86959 | 34865 ft | 521 kts | 63° |
| 2026-05-03 23:59 | -3.90930 | -173.80488 | 34868 ft | 517 kts | 63° |
| 2026-05-04 00:00 | -3.87735 | -173.74089 | 34872 ft | 515 kts | 63° |
| 2026-05-04 00:00 | -3.84516 | -173.67640 | 34869 ft | 517 kts | 63° |
| 2026-05-04 00:01 | -3.81289 | -173.61173 | 34864 ft | 517 kts | 63° |
| 2026-05-04 00:01 | -3.78081 | -173.54746 | 34862 ft | 517 kts | 63° |
| 2026-05-04 00:02 | -3.74887 | -173.48354 | 34862 ft | 514 kts | 63° |
| 2026-05-04 00:02 | -3.71687 | -173.41949 | 34862 ft | 513 kts | 63° |
| 2026-05-04 00:03 | -3.68484 | -173.35539 | 34862 ft | 513 kts | 63° |
| 2026-05-04 00:03 | -3.65281 | -173.29131 | 34862 ft | 513 kts | 63° |
| 2026-05-04 00:04 | -3.62097 | -173.22763 | 34862 ft | 513 kts | 63° |
| 2026-05-04 00:04 | -3.58893 | -173.16355 | 34862 ft | 513 kts | 63° |
| 2026-05-04 00:05 | -3.55697 | -173.09964 | 34863 ft | 511 kts | 63° |
| 2026-05-04 00:05 | -3.52535 | -173.03641 | 34862 ft | 510 kts | 63° |
| 2026-05-04 00:06 | -3.49347 | -172.97269 | 34862 ft | 510 kts | 63° |
| 2026-05-04 00:06 | -3.46180 | -172.90940 | 34862 ft | 510 kts | 63° |
| 2026-05-04 00:07 | -3.43010 | -172.84607 | 34862 ft | 510 kts | 63° |
| 2026-05-04 00:07 | -3.39828 | -172.78251 | 34862 ft | 510 kts | 63° |
| 2026-05-04 00:08 | -3.36657 | -172.71918 | 34862 ft | 511 kts | 63° |
| 2026-05-04 00:08 | -3.33464 | -172.65541 | 34862 ft | 511 kts | 63° |
| 2026-05-04 00:09 | -3.30288 | -172.59201 | 34862 ft | 512 kts | 63° |
| 2026-05-04 00:09 | -3.27091 | -172.52820 | 34862 ft | 512 kts | 63° |
| 2026-05-04 00:10 | -3.23895 | -172.46443 | 34862 ft | 512 kts | 63° |
| 2026-05-04 00:10 | -3.20698 | -172.40065 | 34864 ft | 512 kts | 63° |
| 2026-05-04 00:11 | -3.17523 | -172.33729 | 34862 ft | 513 kts | 62° |
| 2026-05-04 00:11 | -3.14322 | -172.27344 | 34862 ft | 513 kts | 62° |
| 2026-05-04 00:12 | -3.11112 | -172.20944 | 34862 ft | 513 kts | 62° |
| 2026-05-04 00:12 | -3.07905 | -172.14551 | 34862 ft | 513 kts | 62° |
| 2026-05-04 00:13 | -3.04723 | -172.08208 | 34862 ft | 513 kts | 62° |
| 2026-05-04 00:13 | -3.01514 | -172.01811 | 34861 ft | 513 kts | 62° |
| 2026-05-04 00:14 | -2.98330 | -171.95467 | 34859 ft | 512 kts | 62° |
| 2026-05-04 00:14 | -2.95130 | -171.89092 | 34859 ft | 512 kts | 62° |
| 2026-05-04 00:15 | -2.91933 | -171.82722 | 34859 ft | 512 kts | 62° |
| 2026-05-04 00:15 | -2.88730 | -171.76345 | 34859 ft | 512 kts | 62° |
| 2026-05-04 00:16 | -2.85546 | -171.70004 | 34856 ft | 512 kts | 62° |
| 2026-05-04 00:16 | -2.82344 | -171.63629 | 34856 ft | 512 kts | 62° |
| 2026-05-04 00:17 | -2.79135 | -171.57242 | 34856 ft | 513 kts | 62° |
| 2026-05-04 00:17 | -2.75941 | -171.50885 | 34856 ft | 513 kts | 62° |
| 2026-05-04 00:18 | -2.72728 | -171.44490 | 34856 ft | 513 kts | 62° |
| 2026-05-04 00:18 | -2.69514 | -171.38096 | 34856 ft | 513 kts | 62° |
| 2026-05-04 00:19 | -2.66320 | -171.31742 | 34857 ft | 513 kts | 62° |
| 2026-05-04 00:19 | -2.63106 | -171.25348 | 34857 ft | 513 kts | 62° |
| 2026-05-04 00:20 | -2.59894 | -171.18960 | 34856 ft | 513 kts | 62° |
| 2026-05-04 00:20 | -2.56707 | -171.12623 | 34856 ft | 513 kts | 62° |
| 2026-05-04 00:21 | -2.53496 | -171.06241 | 34856 ft | 513 kts | 62° |
| 2026-05-04 00:21 | -2.50287 | -170.99862 | 34856 ft | 513 kts | 62° |
| 2026-05-04 00:22 | -2.47092 | -170.93512 | 34856 ft | 513 kts | 62° |
| 2026-05-04 00:22 | -2.43883 | -170.87135 | 34857 ft | 513 kts | 63° |
| 2026-05-04 00:23 | -2.40689 | -170.80790 | 34856 ft | 512 kts | 63° |
| 2026-05-04 00:23 | -2.37478 | -170.74408 | 34856 ft | 512 kts | 63° |
| 2026-05-04 00:24 | -2.34271 | -170.68039 | 34856 ft | 512 kts | 63° |
| 2026-05-04 00:24 | -2.31060 | -170.61660 | 34856 ft | 512 kts | 63° |
| 2026-05-04 00:25 | -2.27870 | -170.55324 | 34856 ft | 512 kts | 62° |
| 2026-05-04 00:25 | -2.24657 | -170.48945 | 34856 ft | 513 kts | 63° |
| 2026-05-04 00:26 | -2.21984 | -170.43638 | 34856 ft | 512 kts | 63° |
| 2026-05-04 00:26 | -2.18775 | -170.37268 | 34856 ft | 512 kts | 63° |
| 2026-05-04 00:27 | -2.15559 | -170.30884 | 34854 ft | 512 kts | 63° |
| 2026-05-04 00:27 | -2.12366 | -170.24548 | 34854 ft | 512 kts | 63° |
| 2026-05-04 00:28 | -2.09152 | -170.18169 | 34853 ft | 512 kts | 63° |
| 2026-05-04 00:28 | -2.05939 | -170.11793 | 34857 ft | 513 kts | 63° |
| 2026-05-04 00:29 | -2.02736 | -170.05439 | 34856 ft | 514 kts | 63° |
| 2026-05-04 00:29 | -1.99520 | -169.99061 | 34856 ft | 514 kts | 63° |
| 2026-05-04 00:30 | -1.96320 | -169.92670 | 34857 ft | 514 kts | 63° |
| 2026-05-04 00:30 | -1.93154 | -169.86312 | 34851 ft | 514 kts | 63° |
| 2026-05-04 00:31 | -1.89959 | -169.79903 | 34851 ft | 514 kts | 63° |
| 2026-05-04 00:31 | -1.86754 | -169.73487 | 34851 ft | 516 kts | 63° |
| 2026-05-04 00:32 | -1.83546 | -169.67067 | 34850 ft | 518 kts | 63° |
| 2026-05-04 00:32 | -1.80316 | -169.60601 | 34851 ft | 519 kts | 63° |
| 2026-05-04 00:33 | -1.75481 | -169.50921 | 34851 ft | 519 kts | 63° |
| 2026-05-04 00:34 | -1.72271 | -169.44498 | 34849 ft | 519 kts | 63° |
| 2026-05-04 00:34 | -1.69048 | -169.38047 | 34850 ft | 516 kts | 63° |
| 2026-05-04 00:35 | -1.65864 | -169.31676 | 34852 ft | 513 kts | 63° |
| 2026-05-04 00:35 | -1.62669 | -169.25285 | 34851 ft | 513 kts | 63° |
| 2026-05-04 00:36 | -1.59475 | -169.18894 | 34851 ft | 513 kts | 63° |
| 2026-05-04 00:36 | -1.56307 | -169.12559 | 34851 ft | 513 kts | 63° |
| 2026-05-04 00:37 | -1.53111 | -169.06167 | 34850 ft | 513 kts | 63° |
| 2026-05-04 00:37 | -1.49915 | -168.99774 | 34846 ft | 513 kts | 63° |
| 2026-05-04 00:38 | -1.46734 | -168.93413 | 34849 ft | 514 kts | 63° |
| 2026-05-04 00:38 | -1.43533 | -168.87011 | 34848 ft | 514 kts | 63° |
| 2026-05-04 00:39 | -1.40335 | -168.80618 | 34848 ft | 514 kts | 63° |
| 2026-05-04 00:39 | -1.37155 | -168.74259 | 34848 ft | 514 kts | 63° |
| 2026-05-04 00:40 | -1.33955 | -168.67862 | 34849 ft | 514 kts | 63° |
| 2026-05-04 00:40 | -1.30754 | -168.61464 | 34846 ft | 514 kts | 63° |
| 2026-05-04 00:41 | -1.27571 | -168.55103 | 34844 ft | 514 kts | 63° |
| 2026-05-04 00:41 | -1.24372 | -168.48710 | 34842 ft | 514 kts | 63° |
| 2026-05-04 00:42 | -1.21165 | -168.42300 | 34841 ft | 514 kts | 63° |
| 2026-05-04 00:42 | -1.17982 | -168.35940 | 34846 ft | 514 kts | 63° |
| 2026-05-04 00:43 | -1.14780 | -168.29540 | 34845 ft | 514 kts | 63° |
| 2026-05-04 00:43 | -1.11579 | -168.23145 | 34846 ft | 514 kts | 63° |
| 2026-05-04 00:44 | -1.08390 | -168.16774 | 34847 ft | 514 kts | 63° |
| 2026-05-04 00:44 | -1.05176 | -168.10353 | 34845 ft | 514 kts | 63° |
| 2026-05-04 00:45 | -1.01993 | -168.03995 | 34845 ft | 514 kts | 63° |
| 2026-05-04 00:45 | -0.98790 | -167.97596 | 34845 ft | 514 kts | 63° |
| 2026-05-04 00:46 | -0.95600 | -167.91226 | 34844 ft | 514 kts | 63° |
| 2026-05-04 00:46 | -0.92390 | -167.84814 | 34846 ft | 515 kts | 63° |
| 2026-05-04 00:47 | -0.89200 | -167.78443 | 34847 ft | 515 kts | 63° |
| 2026-05-04 00:47 | -0.85991 | -167.72033 | 34845 ft | 515 kts | 63° |
| 2026-05-04 00:48 | -0.82796 | -167.65654 | 34843 ft | 515 kts | 63° |
| 2026-05-04 00:48 | -0.79587 | -167.59244 | 34845 ft | 515 kts | 63° |
| 2026-05-04 00:49 | -0.76379 | -167.52840 | 34843 ft | 514 kts | 63° |
| 2026-05-04 00:49 | -0.73191 | -167.46476 | 34845 ft | 514 kts | 64° |
| 2026-05-04 00:50 | -0.70003 | -167.40111 | 34844 ft | 514 kts | 64° |
| 2026-05-04 00:50 | -0.66796 | -167.33707 | 34841 ft | 514 kts | 64° |
| 2026-05-04 00:51 | -0.63617 | -167.27360 | 34842 ft | 514 kts | 64° |
| 2026-05-04 00:51 | -0.60404 | -167.20944 | 34841 ft | 514 kts | 64° |
| 2026-05-04 00:52 | -0.57217 | -167.14583 | 34842 ft | 513 kts | 64° |
| 2026-05-04 00:52 | -0.54018 | -167.08195 | 34840 ft | 513 kts | 64° |
| 2026-05-04 00:53 | -0.50835 | -167.01842 | 34841 ft | 513 kts | 64° |
| 2026-05-04 00:53 | -0.47631 | -166.95446 | 34842 ft | 513 kts | 64° |
| 2026-05-04 00:54 | -0.44446 | -166.89087 | 34845 ft | 513 kts | 64° |
| 2026-05-04 00:54 | -0.41243 | -166.82694 | 34846 ft | 514 kts | 63° |
| 2026-05-04 00:55 | -0.38051 | -166.76323 | 34845 ft | 514 kts | 63° |
| 2026-05-04 00:55 | -0.34840 | -166.69916 | 34845 ft | 514 kts | 64° |
| 2026-05-04 00:56 | -0.31637 | -166.63523 | 34848 ft | 514 kts | 64° |
| 2026-05-04 00:56 | -0.28451 | -166.57162 | 34842 ft | 514 kts | 64° |
| 2026-05-04 00:57 | -0.25248 | -166.50770 | 34844 ft | 514 kts | 64° |
| 2026-05-04 00:57 | -0.22038 | -166.44362 | 34847 ft | 515 kts | 63° |
| 2026-05-04 00:58 | -0.18842 | -166.37983 | 34847 ft | 515 kts | 63° |
| 2026-05-04 00:58 | -0.15647 | -166.31606 | 34843 ft | 515 kts | 63° |
| 2026-05-04 00:59 | -0.12434 | -166.25195 | 34847 ft | 515 kts | 63° |
| 2026-05-04 00:59 | -0.09223 | -166.18787 | 34846 ft | 515 kts | 63° |
| 2026-05-04 01:00 | -0.06032 | -166.12418 | 34845 ft | 516 kts | 64° |
| 2026-05-04 01:00 | -0.02800 | -166.05968 | 34846 ft | 518 kts | 64° |
| 2026-05-04 01:01 | 0.00415 | -165.99549 | 34848 ft | 518 kts | 64° |
| 2026-05-04 01:01 | 0.03649 | -165.93096 | 34839 ft | 519 kts | 64° |
| 2026-05-04 01:02 | 0.06889 | -165.86632 | 34845 ft | 519 kts | 64° |
| 2026-05-04 01:02 | 0.10109 | -165.80205 | 34841 ft | 519 kts | 64° |
| 2026-05-04 01:03 | 0.13328 | -165.73781 | 34838 ft | 519 kts | 64° |
| 2026-05-04 01:03 | 0.16561 | -165.67329 | 34838 ft | 519 kts | 64° |
| 2026-05-04 01:04 | 0.19800 | -165.60864 | 34843 ft | 519 kts | 64° |
| 2026-05-04 01:04 | 0.23019 | -165.54440 | 34843 ft | 519 kts | 64° |
| 2026-05-04 01:05 | 0.26253 | -165.47985 | 34842 ft | 519 kts | 64° |
| 2026-05-04 01:05 | 0.29485 | -165.41535 | 34841 ft | 519 kts | 64° |
| 2026-05-04 01:06 | 0.32706 | -165.35106 | 34841 ft | 519 kts | 64° |
| 2026-05-04 01:06 | 0.35924 | -165.28683 | 34844 ft | 519 kts | 64° |
| 2026-05-04 01:07 | 0.39167 | -165.22209 | 34843 ft | 519 kts | 64° |
| 2026-05-04 01:07 | 0.42407 | -165.15743 | 34843 ft | 519 kts | 64° |
| 2026-05-04 01:08 | 0.45644 | -165.09281 | 34842 ft | 519 kts | 64° |
| 2026-05-04 01:08 | 0.48861 | -165.02862 | 34840 ft | 519 kts | 64° |
| 2026-05-04 01:09 | 0.52105 | -164.96386 | 34837 ft | 520 kts | 64° |
| 2026-05-04 01:09 | 0.55341 | -164.89925 | 34840 ft | 520 kts | 64° |
| 2026-05-04 01:10 | 0.58565 | -164.83488 | 34839 ft | 520 kts | 64° |
| 2026-05-04 01:10 | 0.61803 | -164.77025 | 34837 ft | 520 kts | 64° |
| 2026-05-04 01:11 | 0.65027 | -164.70587 | 34839 ft | 520 kts | 64° |
| 2026-05-04 01:11 | 0.68272 | -164.64110 | 34840 ft | 519 kts | 64° |
| 2026-05-04 01:12 | 0.71493 | -164.57678 | 34839 ft | 519 kts | 64° |
| 2026-05-04 01:12 | 0.74733 | -164.51207 | 34840 ft | 519 kts | 64° |
| 2026-05-04 01:13 | 0.77423 | -164.45837 | 34846 ft | 519 kts | 64° |
| 2026-05-04 01:13 | 0.81178 | -164.38339 | 34845 ft | 519 kts | 64° |
| 2026-05-04 01:14 | 0.83888 | -164.32929 | 34849 ft | 519 kts | 64° |
| 2026-05-04 01:14 | 0.87102 | -164.26509 | 34846 ft | 519 kts | 64° |
| 2026-05-04 01:15 | 0.90337 | -164.20049 | 34845 ft | 519 kts | 64° |
| 2026-05-04 01:15 | 0.93557 | -164.13618 | 34846 ft | 519 kts | 64° |
| 2026-05-04 01:16 | 0.96787 | -164.07166 | 34848 ft | 519 kts | 64° |
| 2026-05-04 01:16 | 1.00020 | -164.00708 | 34845 ft | 519 kts | 64° |
| 2026-05-04 01:17 | 1.03260 | -163.94234 | 34845 ft | 520 kts | 64° |
| 2026-05-04 01:17 | 1.06478 | -163.87807 | 34844 ft | 520 kts | 64° |
| 2026-05-04 01:18 | 1.09723 | -163.81323 | 34841 ft | 520 kts | 64° |
| 2026-05-04 01:18 | 1.12966 | -163.74845 | 34846 ft | 520 kts | 64° |
| 2026-05-04 01:19 | 1.16193 | -163.68397 | 34848 ft | 520 kts | 64° |
| 2026-05-04 01:19 | 1.19437 | -163.61912 | 34841 ft | 521 kts | 64° |
| 2026-05-04 01:20 | 1.22668 | -163.55455 | 34845 ft | 521 kts | 64° |
| 2026-05-04 01:20 | 1.25892 | -163.49013 | 34843 ft | 521 kts | 64° |
| 2026-05-04 01:21 | 1.29143 | -163.42515 | 34844 ft | 521 kts | 64° |
| 2026-05-04 01:21 | 1.32382 | -163.36040 | 34844 ft | 521 kts | 64° |
| 2026-05-04 01:22 | 1.35609 | -163.29591 | 34843 ft | 521 kts | 64° |
| 2026-05-04 01:22 | 1.38851 | -163.23108 | 34842 ft | 520 kts | 64° |
| 2026-05-04 01:23 | 1.42092 | -163.16628 | 34843 ft | 520 kts | 64° |
| 2026-05-04 01:23 | 1.45309 | -163.10196 | 34841 ft | 520 kts | 64° |
| 2026-05-04 01:24 | 1.48548 | -163.03717 | 34842 ft | 518 kts | 64° |
| 2026-05-04 01:24 | 1.51767 | -162.97282 | 34843 ft | 517 kts | 64° |
| 2026-05-04 01:25 | 1.54974 | -162.90870 | 34840 ft | 518 kts | 64° |
| 2026-05-04 01:25 | 1.58205 | -162.84406 | 34842 ft | 519 kts | 64° |
| 2026-05-04 01:26 | 1.61420 | -162.77975 | 34843 ft | 519 kts | 64° |
| 2026-05-04 01:26 | 1.64650 | -162.71513 | 34840 ft | 519 kts | 64° |
| 2026-05-04 01:27 | 1.67864 | -162.65083 | 34841 ft | 519 kts | 64° |
| 2026-05-04 01:27 | 1.71091 | -162.58625 | 34841 ft | 519 kts | 63° |
| 2026-05-04 01:28 | 1.74328 | -162.52147 | 34841 ft | 520 kts | 63° |
| 2026-05-04 01:28 | 1.77562 | -162.45675 | 34841 ft | 520 kts | 63° |
| 2026-05-04 01:29 | 1.80776 | -162.39241 | 34843 ft | 520 kts | 64° |
| 2026-05-04 01:29 | 1.83994 | -162.32799 | 34842 ft | 519 kts | 63° |
| 2026-05-04 01:30 | 1.87222 | -162.26338 | 34844 ft | 518 kts | 63° |
| 2026-05-04 01:30 | 1.90451 | -162.19872 | 34844 ft | 519 kts | 63° |
| 2026-05-04 01:31 | 1.93656 | -162.13455 | 34841 ft | 519 kts | 63° |
| 2026-05-04 01:31 | 1.96890 | -162.06978 | 34845 ft | 519 kts | 63° |
| 2026-05-04 01:32 | 2.00102 | -162.00545 | 34841 ft | 519 kts | 63° |
| 2026-05-04 01:32 | 2.03317 | -161.94106 | 34844 ft | 519 kts | 63° |
| 2026-05-04 01:33 | 2.06545 | -161.87637 | 34846 ft | 519 kts | 63° |
| 2026-05-04 01:33 | 2.09760 | -161.81196 | 34841 ft | 520 kts | 63° |
| 2026-05-04 01:34 | 2.12996 | -161.74712 | 34846 ft | 520 kts | 63° |
| 2026-05-04 01:34 | 2.16235 | -161.68220 | 34842 ft | 520 kts | 63° |
| 2026-05-04 01:35 | 2.19446 | -161.61782 | 34848 ft | 519 kts | 63° |
| 2026-05-04 01:35 | 2.22668 | -161.55324 | 34847 ft | 517 kts | 63° |
| 2026-05-04 01:36 | 2.25883 | -161.48878 | 34846 ft | 518 kts | 63° |
| 2026-05-04 01:36 | 2.29104 | -161.42421 | 34845 ft | 519 kts | 63° |
| 2026-05-04 01:37 | 2.32304 | -161.36002 | 34842 ft | 519 kts | 63° |
| 2026-05-04 01:37 | 2.35527 | -161.29538 | 34842 ft | 519 kts | 63° |
| 2026-05-04 01:38 | 2.38751 | -161.23071 | 34843 ft | 519 kts | 63° |
| 2026-05-04 01:38 | 2.41976 | -161.16600 | 34842 ft | 519 kts | 63° |
| 2026-05-04 01:39 | 2.45184 | -161.10164 | 34843 ft | 519 kts | 63° |
| 2026-05-04 01:39 | 2.48410 | -161.03688 | 34842 ft | 519 kts | 63° |
| 2026-05-04 01:40 | 2.51610 | -160.97267 | 34842 ft | 519 kts | 63° |
| 2026-05-04 01:40 | 2.54837 | -160.90789 | 34842 ft | 517 kts | 63° |
| 2026-05-04 01:41 | 2.58044 | -160.84349 | 34843 ft | 517 kts | 63° |
| 2026-05-04 01:41 | 2.61238 | -160.77935 | 34842 ft | 518 kts | 63° |
| 2026-05-04 01:42 | 2.64455 | -160.71474 | 34842 ft | 518 kts | 63° |
| 2026-05-04 01:42 | 2.67652 | -160.65052 | 34843 ft | 518 kts | 63° |
| 2026-05-04 01:43 | 2.70876 | -160.58575 | 34843 ft | 518 kts | 63° |
| 2026-05-04 01:43 | 2.74072 | -160.52154 | 34843 ft | 518 kts | 63° |
| 2026-05-04 01:44 | 2.77294 | -160.45680 | 34843 ft | 519 kts | 63° |
| 2026-05-04 01:44 | 2.80496 | -160.39244 | 34842 ft | 519 kts | 63° |
| 2026-05-04 01:45 | 2.83726 | -160.32751 | 34843 ft | 519 kts | 64° |
| 2026-05-04 01:45 | 2.88542 | -160.23067 | 34842 ft | 519 kts | 64° |
| 2026-05-04 01:46 | 2.91763 | -160.16589 | 34843 ft | 518 kts | 64° |
| 2026-05-04 01:46 | 2.94967 | -160.10143 | 34843 ft | 519 kts | 64° |
| 2026-05-04 01:47 | 2.98236 | -160.03731 | 34841 ft | 519 kts | 59° |
| 2026-05-04 01:47 | 3.00312 | -160.00774 | 34997 ft | 517 kts | 49° |
| 2026-05-04 01:47 | 3.02808 | -159.98239 | 35341 ft | 512 kts | 39° |
| 2026-05-04 01:48 | 3.05597 | -159.96034 | 35676 ft | 508 kts | 36° |
| 2026-05-04 01:48 | 3.08448 | -159.93945 | 35941 ft | 506 kts | 34° |
| 2026-05-04 01:48 | 3.11326 | -159.91917 | 36163 ft | 505 kts | 34° |
| 2026-05-04 01:48 | 3.14217 | -159.89911 | 36377 ft | 504 kts | 34° |
| 2026-05-04 01:49 | 3.17100 | -159.87915 | 36575 ft | 503 kts | 34° |
| 2026-05-04 01:49 | 3.19975 | -159.85917 | 36772 ft | 503 kts | 34° |
| 2026-05-04 01:49 | 3.27067 | -159.80949 | 36839 ft | 509 kts | 34° |
| 2026-05-04 01:50 | 3.50071 | -159.64732 | 36840 ft | 508 kts | 34° |
| 2026-05-04 01:50 | 3.73240 | -159.48393 | 36839 ft | 508 kts | 34° |
| 2026-05-04 01:51 | 3.96257 | -159.32150 | 36840 ft | 508 kts | 34° |
| 2026-05-04 01:51 | 4.19437 | -159.15781 | 36840 ft | 509 kts | 34° |
| 2026-05-04 01:52 | 4.42625 | -158.99395 | 36840 ft | 509 kts | 34° |
| 2026-05-04 01:52 | 4.65817 | -158.82992 | 36844 ft | 510 kts | 34° |
| 2026-05-04 01:53 | 4.88950 | -158.66618 | 36843 ft | 511 kts | 34° |
| 2026-05-04 01:53 | 5.12294 | -158.50082 | 36841 ft | 511 kts | 34° |
| 2026-05-04 01:54 | 5.35481 | -158.33638 | 36844 ft | 512 kts | 34° |
| 2026-05-04 01:54 | 5.58757 | -158.17117 | 36845 ft | 512 kts | 34° |
| 2026-05-04 01:55 | 5.81900 | -158.00676 | 36843 ft | 511 kts | 34° |
| 2026-05-04 01:55 | 6.05156 | -157.84136 | 36844 ft | 509 kts | 34° |
| 2026-05-04 01:56 | 6.28294 | -157.67662 | 36846 ft | 509 kts | 34° |
| 2026-05-04 01:56 | 6.51286 | -157.51275 | 36846 ft | 507 kts | 34° |
| 2026-05-04 01:57 | 6.74351 | -157.34816 | 36849 ft | 509 kts | 34° |
| 2026-05-04 01:57 | 6.97344 | -157.18390 | 36853 ft | 508 kts | 34° |
| 2026-05-04 01:58 | 7.20511 | -157.01816 | 36853 ft | 510 kts | 34° |
| 2026-05-04 01:58 | 7.43550 | -156.85318 | 36856 ft | 510 kts | 34° |
| 2026-05-04 01:59 | 7.66695 | -156.68719 | 36852 ft | 510 kts | 34° |
| 2026-05-04 01:59 | 7.89906 | -156.52050 | 36855 ft | 513 kts | 34° |
| 2026-05-04 02:00 | 8.13140 | -156.35341 | 36855 ft | 515 kts | 34° |
| 2026-05-04 02:00 | 8.32589 | -156.21332 | 36853 ft | 515 kts | 34° |
| 2026-05-04 02:01 | 8.59697 | -156.01785 | 36853 ft | 513 kts | 34° |
| 2026-05-04 02:01 | 8.79054 | -155.87804 | 36874 ft | 515 kts | 34° |
| 2026-05-04 02:02 | 9.02391 | -155.70923 | 36874 ft | 514 kts | 34° |
| 2026-05-04 02:02 | 9.25663 | -155.54062 | 36865 ft | 514 kts | 34° |
| 2026-05-04 02:03 | 9.48972 | -155.37148 | 36859 ft | 515 kts | 34° |
| 2026-05-04 02:03 | 9.72153 | -155.20293 | 36865 ft | 515 kts | 34° |
| 2026-05-04 02:04 | 9.95493 | -155.03297 | 36864 ft | 515 kts | 35° |
| 2026-05-04 02:04 | 10.16838 | -154.83613 | 36882 ft | 517 kts | 43° |
| 2026-05-04 02:05 | 10.37496 | -154.63439 | 36872 ft | 519 kts | 43° |
| 2026-05-04 02:05 | 10.58261 | -154.43131 | 36873 ft | 519 kts | 43° |
| 2026-05-04 02:06 | 10.79075 | -154.22735 | 36879 ft | 519 kts | 43° |
| 2026-05-04 02:06 | 10.99946 | -154.02239 | 36884 ft | 521 kts | 43° |
| 2026-05-04 02:07 | 11.20855 | -153.81668 | 36892 ft | 523 kts | 44° |
| 2026-05-04 02:07 | 11.41723 | -153.61090 | 36892 ft | 523 kts | 43° |
| 2026-05-04 02:08 | 11.62882 | -153.40181 | 36896 ft | 530 kts | 44° |
| 2026-05-04 02:08 | 11.84125 | -153.19143 | 36905 ft | 538 kts | 43° |
| 2026-05-04 02:09 | 12.05464 | -152.97959 | 36904 ft | 537 kts | 43° |
| 2026-05-04 02:09 | 12.27059 | -152.76472 | 36911 ft | 541 kts | 43° |
| 2026-05-04 02:10 | 12.48617 | -152.54970 | 36914 ft | 545 kts | 42° |
| 2026-05-04 02:10 | 12.70366 | -152.33223 | 36917 ft | 547 kts | 42° |
| 2026-05-04 02:11 | 12.92158 | -152.11378 | 36917 ft | 546 kts | 42° |
| 2026-05-04 02:11 | 13.13876 | -151.89551 | 36925 ft | 548 kts | 42° |
| 2026-05-04 02:12 | 13.35730 | -151.67529 | 36921 ft | 550 kts | 41° |
| 2026-05-04 02:12 | 13.57437 | -151.45596 | 36930 ft | 550 kts | 41° |
| 2026-05-04 02:13 | 13.79259 | -151.23488 | 36950 ft | 550 kts | 41° |
| 2026-05-04 02:13 | 14.01177 | -151.01220 | 36933 ft | 552 kts | 41° |
| 2026-05-04 02:14 | 14.22968 | -150.79019 | 36936 ft | 553 kts | 41° |
| 2026-05-04 02:14 | 14.44882 | -150.56628 | 36946 ft | 553 kts | 41° |
| 2026-05-04 02:15 | 14.66675 | -150.34296 | 36948 ft | 556 kts | 41° |
| 2026-05-04 02:15 | 14.88695 | -150.11662 | 36954 ft | 556 kts | 41° |
| 2026-05-04 02:16 | 15.08504 | -149.86912 | 36957 ft | 562 kts | 54° |
| 2026-05-04 02:16 | 15.25709 | -149.60035 | 36964 ft | 564 kts | 54° |
| 2026-05-04 02:17 | 15.43095 | -149.32881 | 36964 ft | 563 kts | 54° |
| 2026-05-04 02:17 | 15.60330 | -149.05865 | 36972 ft | 564 kts | 54° |
| 2026-05-04 02:18 | 15.77626 | -148.78655 | 36974 ft | 564 kts | 54° |
| 2026-05-04 02:18 | 15.94940 | -148.51318 | 36977 ft | 566 kts | 54° |
| 2026-05-04 02:19 | 16.12114 | -148.24099 | 36977 ft | 565 kts | 55° |
| 2026-05-04 02:19 | 16.29333 | -147.96707 | 36982 ft | 564 kts | 55° |
| 2026-05-04 02:20 | 16.46489 | -147.69314 | 36985 ft | 565 kts | 54° |
| 2026-05-04 02:20 | 16.63515 | -147.42020 | 36987 ft | 565 kts | 54° |
| 2026-05-04 02:21 | 16.80670 | -147.14414 | 36990 ft | 565 kts | 54° |
| 2026-05-04 02:21 | 16.97678 | -146.86936 | 36998 ft | 566 kts | 54° |
| 2026-05-04 02:22 | 17.14841 | -146.59096 | 36999 ft | 570 kts | 55° |
| 2026-05-04 02:22 | 17.32019 | -146.31116 | 37002 ft | 570 kts | 55° |
| 2026-05-04 02:23 | 17.49199 | -146.03019 | 37007 ft | 573 kts | 55° |
| 2026-05-04 02:23 | 17.66273 | -145.74976 | 37011 ft | 570 kts | 55° |
| 2026-05-04 02:24 | 17.83299 | -145.46894 | 37009 ft | 570 kts | 55° |
| 2026-05-04 02:24 | 18.00227 | -145.18856 | 37016 ft | 570 kts | 55° |
| 2026-05-04 02:25 | 18.17183 | -144.90649 | 37025 ft | 572 kts | 54° |
| 2026-05-04 02:25 | 18.34211 | -144.62199 | 37023 ft | 572 kts | 54° |
| 2026-05-04 02:26 | 18.51034 | -144.33965 | 37026 ft | 570 kts | 55° |
| 2026-05-04 02:26 | 18.67926 | -144.05491 | 37028 ft | 573 kts | 54° |
| 2026-05-04 02:27 | 18.84861 | -143.76817 | 37037 ft | 579 kts | 54° |
| 2026-05-04 02:27 | 19.01884 | -143.47854 | 37040 ft | 580 kts | 54° |
| 2026-05-04 02:28 | 19.18808 | -143.18920 | 37041 ft | 578 kts | 54° |
| 2026-05-04 02:28 | 19.35741 | -142.89842 | 37055 ft | 579 kts | 54° |
| 2026-05-04 02:29 | 19.52358 | -142.61167 | 37046 ft | 576 kts | 54° |
| 2026-05-04 02:29 | 19.69006 | -142.32296 | 37051 ft | 571 kts | 54° |
| 2026-05-04 02:30 | 19.85498 | -142.03558 | 37044 ft | 569 kts | 54° |
| 2026-05-04 02:30 | 19.93409 | -141.89719 | 37035 ft | 553 kts | 54° |
| 2026-05-04 02:30 | 20.01410 | -141.75713 | 37055 ft | 570 kts | 54° |
| 2026-05-04 02:31 | 20.17836 | -141.46801 | 37056 ft | 569 kts | 54° |
| 2026-05-04 02:31 | 20.34187 | -141.17894 | 37061 ft | 571 kts | 55° |
| 2026-05-04 02:32 | 20.50552 | -140.88808 | 37064 ft | 568 kts | 55° |
| 2026-05-04 02:32 | 20.66744 | -140.59890 | 37070 ft | 570 kts | 55° |
| 2026-05-04 02:33 | 20.83024 | -140.30662 | 37072 ft | 571 kts | 55° |
| 2026-05-04 02:33 | 20.99153 | -140.01557 | 37121 ft | 571 kts | 55° |
| 2026-05-04 02:34 | 21.07183 | -139.86968 | 37967 ft | 569 kts | 55° |
| 2026-05-04 02:34 | 21.15197 | -139.72351 | 38739 ft | 568 kts | 55° |
| 2026-05-04 02:34 | 21.23205 | -139.57719 | 39080 ft | 571 kts | 55° |
| 2026-05-04 02:34 | 21.31239 | -139.42997 | 39101 ft | 573 kts | 56° |
| 2026-05-04 02:35 | 21.47280 | -139.13480 | 39124 ft | 572 kts | 56° |
| 2026-05-04 02:35 | 21.63147 | -138.84125 | 39133 ft | 571 kts | 56° |
| 2026-05-04 02:36 | 21.78977 | -138.54681 | 39109 ft | 569 kts | 56° |
| 2026-05-04 02:36 | 21.94794 | -138.25095 | 39100 ft | 569 kts | 56° |
| 2026-05-04 02:37 | 22.10524 | -137.95509 | 39116 ft | 572 kts | 57° |
| 2026-05-04 02:37 | 22.26250 | -137.65764 | 39125 ft | 573 kts | 57° |
| 2026-05-04 02:38 | 22.42029 | -137.35744 | 39113 ft | 572 kts | 58° |
| 2026-05-04 02:38 | 22.57610 | -137.05934 | 39122 ft | 572 kts | 58° |
| 2026-05-04 02:39 | 22.73259 | -136.75815 | 39118 ft | 572 kts | 58° |
| 2026-05-04 02:39 | 22.88785 | -136.45757 | 39121 ft | 571 kts | 59° |
| 2026-05-04 02:40 | 23.04273 | -136.15595 | 39107 ft | 571 kts | 59° |
| 2026-05-04 02:40 | 23.19640 | -135.85490 | 39121 ft | 572 kts | 60° |
| 2026-05-04 02:41 | 23.35093 | -135.55031 | 39128 ft | 574 kts | 60° |
| 2026-05-04 02:41 | 23.50538 | -135.24399 | 39126 ft | 577 kts | 61° |
| 2026-05-04 02:42 | 23.65866 | -134.93810 | 39123 ft | 578 kts | 62° |
| 2026-05-04 02:42 | 23.81230 | -134.62954 | 39132 ft | 577 kts | 62° |
| 2026-05-04 02:43 | 23.96452 | -134.32192 | 39120 ft | 577 kts | 63° |
| 2026-05-04 02:43 | 24.11676 | -134.01225 | 39121 ft | 577 kts | 63° |
| 2026-05-04 02:44 | 24.24317 | -133.75360 | 39121 ft | 577 kts | 63° |
| 2026-05-04 02:44 | 24.41881 | -133.39183 | 39120 ft | 577 kts | 64° |
| 2026-05-04 02:45 | 24.54423 | -133.13180 | 39121 ft | 580 kts | 64° |
| 2026-05-04 02:45 | 24.69565 | -132.81592 | 39124 ft | 585 kts | 65° |
| 2026-05-04 02:46 | 24.84427 | -132.50379 | 39056 ft | 563 kts | 65° |
| 2026-05-04 02:46 | 24.91781 | -132.34850 | 39123 ft | 577 kts | 65° |
| 2026-05-04 02:46 | 24.99292 | -132.18939 | 39117 ft | 590 kts | 65° |
| 2026-05-04 02:47 | 25.14460 | -131.86649 | 39127 ft | 592 kts | 65° |
| 2026-05-04 02:47 | 25.29544 | -131.54301 | 39127 ft | 593 kts | 66° |
| 2026-05-04 02:48 | 25.44523 | -131.21948 | 39124 ft | 595 kts | 66° |
| 2026-05-04 02:48 | 25.59563 | -130.89239 | 39127 ft | 593 kts | 66° |
| 2026-05-04 02:49 | 25.74391 | -130.56731 | 39127 ft | 593 kts | 66° |
| 2026-05-04 02:49 | 25.89278 | -130.23860 | 39118 ft | 593 kts | 65° |
| 2026-05-04 02:50 | 26.03353 | -129.95300 | 39129 ft | 594 kts | 53° |
| 2026-05-04 02:50 | 26.08434 | -129.88032 | 39129 ft | 595 kts | 51° |
| 2026-05-04 02:51 | 26.13609 | -129.80821 | 39728 ft | 595 kts | 51° |
| 2026-05-04 02:51 | 26.16145 | -129.77268 | 39055 ft | 590 kts | 51° |
| 2026-05-04 02:51 | 26.18691 | -129.73685 | 39128 ft | 589 kts | 51° |
| 2026-05-04 02:52 | 26.23789 | -129.66490 | 39132 ft | 592 kts | 52° |
| 2026-05-04 02:52 | 26.28874 | -129.59294 | 39116 ft | 595 kts | 52° |
| 2026-05-04 02:53 | 26.33996 | -129.52031 | 39136 ft | 595 kts | 51° |
| 2026-05-04 02:53 | 26.39115 | -129.44761 | 39126 ft | 595 kts | 51° |
| 2026-05-04 02:54 | 26.44190 | -129.37542 | 39125 ft | 595 kts | 52° |
| 2026-05-04 02:54 | 26.49300 | -129.30263 | 39134 ft | 595 kts | 51° |
| 2026-05-04 02:55 | 26.56941 | -129.19353 | 39123 ft | 596 kts | 51° |
| 2026-05-04 02:56 | 26.62057 | -129.12034 | 39132 ft | 596 kts | 51° |
| 2026-05-04 02:56 | 26.67166 | -129.04714 | 39139 ft | 596 kts | 51° |
| 2026-05-04 02:57 | 26.72237 | -128.97436 | 39126 ft | 597 kts | 51° |
| 2026-05-04 02:57 | 26.77349 | -128.90087 | 39128 ft | 598 kts | 51° |
| 2026-05-04 02:58 | 26.82461 | -128.82726 | 39123 ft | 597 kts | 51° |
| 2026-05-04 02:58 | 26.87529 | -128.75417 | 39127 ft | 596 kts | 51° |
| 2026-05-04 02:59 | 26.92627 | -128.68053 | 39122 ft | 596 kts | 51° |
| 2026-05-04 02:59 | 26.97680 | -128.60740 | 39124 ft | 596 kts | 51° |
| 2026-05-04 03:00 | 27.02766 | -128.53369 | 39125 ft | 596 kts | 51° |
| 2026-05-04 03:00 | 27.07850 | -128.45989 | 39129 ft | 597 kts | 51° |
| 2026-05-04 03:01 | 27.12903 | -128.38642 | 39132 ft | 597 kts | 51° |
| 2026-05-04 03:01 | 27.17956 | -128.31281 | 39121 ft | 597 kts | 51° |
| 2026-05-04 03:02 | 27.23039 | -128.23865 | 39122 ft | 597 kts | 52° |
| 2026-05-04 03:02 | 27.28085 | -128.16489 | 39123 ft | 597 kts | 51° |
| 2026-05-04 03:03 | 27.33160 | -128.09059 | 39122 ft | 597 kts | 51° |
| 2026-05-04 03:03 | 27.38192 | -128.01681 | 39122 ft | 597 kts | 51° |
| 2026-05-04 03:04 | 27.43257 | -127.94240 | 39114 ft | 597 kts | 51° |
| 2026-05-04 03:04 | 27.48313 | -127.86801 | 39115 ft | 597 kts | 51° |
| 2026-05-04 03:05 | 27.53342 | -127.79388 | 39119 ft | 597 kts | 51° |
| 2026-05-04 03:05 | 27.58384 | -127.71944 | 39118 ft | 597 kts | 51° |
| 2026-05-04 03:06 | 27.63399 | -127.64528 | 39117 ft | 596 kts | 52° |
| 2026-05-04 03:06 | 27.68426 | -127.57079 | 39116 ft | 596 kts | 52° |
| 2026-05-04 03:07 | 27.73426 | -127.49660 | 39115 ft | 596 kts | 52° |
| 2026-05-04 03:07 | 27.78454 | -127.42186 | 39113 ft | 596 kts | 52° |
| 2026-05-04 03:08 | 27.83465 | -127.34723 | 39116 ft | 595 kts | 52° |
| 2026-05-04 03:08 | 27.88445 | -127.27295 | 39116 ft | 596 kts | 52° |
| 2026-05-04 03:09 | 27.93457 | -127.19806 | 39111 ft | 596 kts | 52° |
| 2026-05-04 03:09 | 27.98428 | -127.12364 | 39114 ft | 596 kts | 52° |
| 2026-05-04 03:10 | 28.03438 | -127.04852 | 39114 ft | 597 kts | 52° |
| 2026-05-04 03:10 | 28.08428 | -126.97358 | 39113 ft | 598 kts | 52° |
| 2026-05-04 03:11 | 28.13436 | -126.89821 | 39110 ft | 598 kts | 52° |
| 2026-05-04 03:11 | 28.18444 | -126.82273 | 39110 ft | 598 kts | 52° |
| 2026-05-04 03:12 | 28.23408 | -126.74777 | 39110 ft | 598 kts | 52° |
| 2026-05-04 03:12 | 28.28405 | -126.67219 | 39110 ft | 598 kts | 52° |
| 2026-05-04 03:13 | 28.33378 | -126.59684 | 39109 ft | 598 kts | 52° |
| 2026-05-04 03:13 | 28.38379 | -126.52091 | 39108 ft | 598 kts | 52° |
| 2026-05-04 03:14 | 28.43366 | -126.44508 | 39107 ft | 599 kts | 52° |
| 2026-05-04 03:14 | 28.48338 | -126.36934 | 39107 ft | 600 kts | 52° |
| 2026-05-04 03:15 | 28.53333 | -126.29310 | 39107 ft | 600 kts | 52° |
| 2026-05-04 03:15 | 28.58289 | -126.21731 | 39104 ft | 600 kts | 52° |
| 2026-05-04 03:16 | 28.63283 | -126.14083 | 39105 ft | 600 kts | 52° |
| 2026-05-04 03:16 | 28.68235 | -126.06484 | 39105 ft | 600 kts | 52° |
| 2026-05-04 03:17 | 28.73222 | -125.98818 | 39102 ft | 600 kts | 52° |
| 2026-05-04 03:17 | 28.78168 | -125.91202 | 39100 ft | 600 kts | 52° |
| 2026-05-04 03:18 | 28.83142 | -125.83527 | 39103 ft | 600 kts | 52° |
| 2026-05-04 03:18 | 28.88114 | -125.75843 | 39102 ft | 600 kts | 52° |
| 2026-05-04 03:19 | 28.93046 | -125.68205 | 39103 ft | 601 kts | 52° |
| 2026-05-04 03:19 | 28.98008 | -125.60508 | 39099 ft | 601 kts | 52° |
| 2026-05-04 03:20 | 29.02971 | -125.52795 | 39099 ft | 602 kts | 52° |
| 2026-05-04 03:20 | 29.07901 | -125.45118 | 39102 ft | 601 kts | 52° |
| 2026-05-04 03:21 | 29.12858 | -125.37384 | 39098 ft | 601 kts | 52° |
| 2026-05-04 03:21 | 29.17800 | -125.29661 | 39095 ft | 601 kts | 52° |
| 2026-05-04 03:22 | 29.22716 | -125.21964 | 39092 ft | 601 kts | 52° |
| 2026-05-04 03:22 | 29.27656 | -125.14215 | 39094 ft | 601 kts | 52° |
| 2026-05-04 03:23 | 29.32592 | -125.06457 | 39094 ft | 601 kts | 52° |
| 2026-05-04 03:23 | 29.37483 | -124.98756 | 39091 ft | 602 kts | 53° |
| 2026-05-04 03:24 | 29.42424 | -124.90963 | 39092 ft | 603 kts | 53° |
| 2026-05-04 03:24 | 29.47354 | -124.83171 | 39090 ft | 603 kts | 53° |
| 2026-05-04 03:25 | 29.52287 | -124.75359 | 39094 ft | 603 kts | 53° |
| 2026-05-04 03:25 | 29.57188 | -124.67584 | 39092 ft | 604 kts | 53° |
| 2026-05-04 03:26 | 29.62122 | -124.59742 | 39089 ft | 604 kts | 53° |
| 2026-05-04 03:26 | 29.67020 | -124.51941 | 39088 ft | 604 kts | 53° |
| 2026-05-04 03:27 | 29.71939 | -124.44092 | 39080 ft | 604 kts | 53° |
| 2026-05-04 03:27 | 29.76827 | -124.36278 | 39092 ft | 604 kts | 53° |
| 2026-05-04 03:28 | 29.81739 | -124.28410 | 39094 ft | 604 kts | 53° |
| 2026-05-04 03:28 | 29.86622 | -124.20574 | 39084 ft | 605 kts | 52° |
| 2026-05-04 03:29 | 29.91535 | -124.12672 | 39084 ft | 605 kts | 52° |
| 2026-05-04 03:29 | 29.96440 | -124.04771 | 39079 ft | 605 kts | 52° |
| 2026-05-04 03:30 | 30.01305 | -123.96918 | 39083 ft | 605 kts | 53° |
| 2026-05-04 03:30 | 30.06204 | -123.88994 | 39080 ft | 604 kts | 52° |
| 2026-05-04 03:31 | 30.11085 | -123.81085 | 39080 ft | 604 kts | 52° |
| 2026-05-04 03:31 | 30.15936 | -123.73209 | 39077 ft | 604 kts | 53° |
| 2026-05-04 03:32 | 30.20813 | -123.65274 | 39072 ft | 604 kts | 52° |
| 2026-05-04 03:32 | 30.25677 | -123.57345 | 39096 ft | 604 kts | 52° |
| 2026-05-04 03:33 | 30.30522 | -123.49432 | 39075 ft | 605 kts | 53° |
| 2026-05-04 03:33 | 30.35368 | -123.41502 | 39079 ft | 605 kts | 53° |
| 2026-05-04 03:34 | 30.40232 | -123.33525 | 39076 ft | 605 kts | 53° |
| 2026-05-04 03:34 | 30.45091 | -123.25543 | 39077 ft | 605 kts | 53° |
| 2026-05-04 03:35 | 30.49911 | -123.17607 | 39075 ft | 605 kts | 53° |
| 2026-05-04 03:35 | 30.54761 | -123.09606 | 39075 ft | 605 kts | 53° |
| 2026-05-04 03:36 | 30.59573 | -123.01653 | 39073 ft | 605 kts | 53° |
| 2026-05-04 03:36 | 30.63596 | -122.94990 | 39072 ft | 605 kts | 53° |
| 2026-05-04 03:37 | 30.68436 | -122.86961 | 39076 ft | 605 kts | 53° |
| 2026-05-04 03:37 | 30.73272 | -122.78923 | 39078 ft | 606 kts | 53° |
| 2026-05-04 03:38 | 30.78072 | -122.70927 | 39075 ft | 606 kts | 53° |
| 2026-05-04 03:38 | 30.82900 | -122.62869 | 39070 ft | 606 kts | 53° |
| 2026-05-04 03:39 | 30.87691 | -122.54853 | 39068 ft | 605 kts | 53° |
| 2026-05-04 03:39 | 30.92503 | -122.46790 | 39072 ft | 605 kts | 53° |
| 2026-05-04 03:40 | 30.97281 | -122.38767 | 39066 ft | 605 kts | 53° |
| 2026-05-04 03:40 | 31.02080 | -122.30690 | 39066 ft | 605 kts | 53° |
| 2026-05-04 03:41 | 31.06874 | -122.22606 | 39064 ft | 604 kts | 53° |
| 2026-05-04 03:41 | 31.11619 | -122.14588 | 39071 ft | 604 kts | 53° |
| 2026-05-04 03:42 | 31.16398 | -122.06497 | 39065 ft | 604 kts | 53° |
| 2026-05-04 03:42 | 31.21169 | -121.98401 | 39070 ft | 604 kts | 53° |
| 2026-05-04 03:43 | 31.25935 | -121.90299 | 39064 ft | 604 kts | 53° |
| 2026-05-04 03:43 | 31.30669 | -121.82233 | 39064 ft | 604 kts | 53° |
| 2026-05-04 03:44 | 31.35405 | -121.74147 | 39063 ft | 604 kts | 53° |
| 2026-05-04 03:44 | 31.40159 | -121.66015 | 39063 ft | 604 kts | 53° |
| 2026-05-04 03:45 | 31.44899 | -121.57889 | 39073 ft | 604 kts | 53° |
| 2026-05-04 03:45 | 31.49608 | -121.49799 | 39069 ft | 604 kts | 53° |
| 2026-05-04 03:46 | 31.54335 | -121.41656 | 39060 ft | 603 kts | 53° |
| 2026-05-04 03:46 | 31.56396 | -121.37362 | 39081 ft | 605 kts | 65° |
| 2026-05-04 03:46 | 31.58060 | -121.32824 | 39068 ft | 605 kts | 68° |
| 2026-05-04 03:47 | 31.61196 | -121.23650 | 39059 ft | 605 kts | 68° |
| 2026-05-04 03:47 | 31.64328 | -121.14527 | 39081 ft | 606 kts | 68° |
| 2026-05-04 03:48 | 31.67493 | -121.05334 | 39058 ft | 606 kts | 68° |
| 2026-05-04 03:48 | 31.70657 | -120.96137 | 39060 ft | 606 kts | 68° |
| 2026-05-04 03:49 | 31.73811 | -120.86941 | 39061 ft | 606 kts | 68° |
| 2026-05-04 03:49 | 31.76941 | -120.77795 | 39061 ft | 607 kts | 68° |
| 2026-05-04 03:50 | 31.80092 | -120.68563 | 39063 ft | 607 kts | 68° |
| 2026-05-04 03:50 | 31.83216 | -120.59380 | 39058 ft | 607 kts | 68° |
| 2026-05-04 03:51 | 31.86348 | -120.50151 | 39054 ft | 607 kts | 68° |
| 2026-05-04 03:51 | 31.89478 | -120.40901 | 39056 ft | 607 kts | 68° |
| 2026-05-04 03:52 | 31.92584 | -120.31719 | 39055 ft | 605 kts | 68° |
| 2026-05-04 03:52 | 31.94467 | -120.27280 | 39060 ft | 602 kts | 55° |
| 2026-05-04 03:52 | 31.96928 | -120.23407 | 38891 ft | 592 kts | 44° |
| 2026-05-04 03:52 | 31.99688 | -120.19829 | 38344 ft | 587 kts | 41° |
| 2026-05-04 03:53 | 32.02494 | -120.16330 | 37747 ft | 584 kts | 41° |
| 2026-05-04 03:53 | 32.05283 | -120.12852 | 37142 ft | 582 kts | 42° |
| 2026-05-04 03:53 | 32.08060 | -120.09370 | 36542 ft | 580 kts | 42° |
| 2026-05-04 03:53 | 32.10820 | -120.05894 | 35946 ft | 579 kts | 43° |
| 2026-05-04 03:54 | 32.13550 | -120.02448 | 35318 ft | 579 kts | 43° |
| 2026-05-04 03:54 | 32.16295 | -119.98975 | 34774 ft | 577 kts | 43° |
| 2026-05-04 03:54 | 32.19022 | -119.95517 | 34316 ft | 573 kts | 43° |
| 2026-05-04 03:54 | 32.21732 | -119.92077 | 33824 ft | 569 kts | 43° |
| 2026-05-04 03:55 | 32.24426 | -119.88653 | 33331 ft | 565 kts | 43° |
| 2026-05-04 03:55 | 32.27096 | -119.85257 | 32876 ft | 560 kts | 43° |
| 2026-05-04 03:55 | 32.29714 | -119.81924 | 32420 ft | 556 kts | 43° |
| 2026-05-04 03:55 | 32.32344 | -119.78573 | 31951 ft | 551 kts | 43° |
| 2026-05-04 03:56 | 32.34913 | -119.75297 | 31518 ft | 547 kts | 43° |
| 2026-05-04 03:56 | 32.37490 | -119.72008 | 31077 ft | 542 kts | 43° |
| 2026-05-04 03:56 | 32.40051 | -119.68737 | 30632 ft | 538 kts | 43° |
| 2026-05-04 03:56 | 32.42590 | -119.65490 | 30198 ft | 534 kts | 43° |
| 2026-05-04 03:57 | 32.45107 | -119.62271 | 29724 ft | 530 kts | 43° |
| 2026-05-04 03:57 | 32.47599 | -119.59080 | 29267 ft | 525 kts | 43° |
| 2026-05-04 03:57 | 32.50074 | -119.55913 | 28826 ft | 519 kts | 43° |
| 2026-05-04 03:57 | 32.52484 | -119.52821 | 28403 ft | 514 kts | 43° |
| 2026-05-04 03:58 | 32.57299 | -119.46630 | 27577 ft | 505 kts | 43° |
| 2026-05-04 03:58 | 32.59673 | -119.43575 | 27153 ft | 500 kts | 43° |
| 2026-05-04 03:58 | 32.61997 | -119.40584 | 26743 ft | 496 kts | 43° |
| 2026-05-04 03:59 | 32.64327 | -119.37582 | 26330 ft | 492 kts | 43° |
| 2026-05-04 03:59 | 32.66641 | -119.34599 | 25920 ft | 488 kts | 43° |
| 2026-05-04 03:59 | 32.68933 | -119.31642 | 25517 ft | 484 kts | 44° |
| 2026-05-04 03:59 | 32.71202 | -119.28711 | 25098 ft | 480 kts | 44° |
| 2026-05-04 04:00 | 32.73429 | -119.25832 | 24696 ft | 476 kts | 44° |
| 2026-05-04 04:00 | 32.75668 | -119.22937 | 24299 ft | 473 kts | 44° |
| 2026-05-04 04:00 | 32.77891 | -119.20059 | 23883 ft | 469 kts | 44° |
| 2026-05-04 04:00 | 32.80095 | -119.17204 | 23437 ft | 466 kts | 44° |
| 2026-05-04 04:01 | 32.82272 | -119.14379 | 23008 ft | 461 kts | 44° |
| 2026-05-04 04:01 | 32.84400 | -119.11616 | 22607 ft | 456 kts | 44° |
| 2026-05-04 04:01 | 32.86535 | -119.08843 | 22217 ft | 451 kts | 44° |
| 2026-05-04 04:01 | 32.88643 | -119.06102 | 21812 ft | 446 kts | 44° |
| 2026-05-04 04:02 | 32.90732 | -119.03384 | 21444 ft | 442 kts | 44° |
| 2026-05-04 04:02 | 32.92777 | -119.00722 | 21027 ft | 438 kts | 44° |
| 2026-05-04 04:02 | 32.94830 | -118.98047 | 20627 ft | 434 kts | 44° |
| 2026-05-04 04:02 | 32.96859 | -118.95403 | 20239 ft | 430 kts | 44° |
| 2026-05-04 04:03 | 32.98871 | -118.92778 | 19860 ft | 426 kts | 44° |
| 2026-05-04 04:03 | 33.00866 | -118.90175 | 19475 ft | 423 kts | 44° |
| 2026-05-04 04:03 | 33.02820 | -118.87623 | 19107 ft | 421 kts | 44° |
| 2026-05-04 04:03 | 33.04789 | -118.85048 | 18724 ft | 419 kts | 44° |
| 2026-05-04 04:04 | 33.06750 | -118.82484 | 18338 ft | 416 kts | 44° |
| 2026-05-04 04:04 | 33.08696 | -118.79936 | 17927 ft | 413 kts | 44° |
| 2026-05-04 04:04 | 33.10603 | -118.77439 | 17527 ft | 409 kts | 45° |
| 2026-05-04 04:04 | 33.12511 | -118.74938 | 17138 ft | 405 kts | 45° |
| 2026-05-04 04:05 | 33.14397 | -118.72464 | 16832 ft | 399 kts | 45° |
| 2026-05-04 04:05 | 33.16260 | -118.70018 | 16443 ft | 395 kts | 45° |
| 2026-05-04 04:05 | 33.18101 | -118.67601 | 16078 ft | 391 kts | 46° |
| 2026-05-04 04:05 | 33.19886 | -118.65225 | 15895 ft | 391 kts | 47° |
| 2026-05-04 04:06 | 33.21682 | -118.62699 | 15829 ft | 401 kts | 49° |
| 2026-05-04 04:06 | 33.23480 | -118.60143 | 15730 ft | 402 kts | 49° |
| 2026-05-04 04:06 | 33.25282 | -118.57590 | 15622 ft | 400 kts | 48° |
| 2026-05-04 04:06 | 33.27080 | -118.55051 | 15517 ft | 399 kts | 49° |
| 2026-05-04 04:07 | 33.28873 | -118.52523 | 15425 ft | 397 kts | 49° |
| 2026-05-04 04:07 | 33.30638 | -118.50036 | 15331 ft | 396 kts | 49° |
| 2026-05-04 04:07 | 33.32407 | -118.47510 | 15215 ft | 395 kts | 51° |
| 2026-05-04 04:07 | 33.33753 | -118.44667 | 15117 ft | 392 kts | 73° |
| 2026-05-04 04:08 | 33.34168 | -118.41490 | 15025 ft | 385 kts | 94° |
| 2026-05-04 04:08 | 33.34020 | -118.38306 | 14917 ft | 382 kts | 98° |
| 2026-05-04 04:08 | 33.33798 | -118.35139 | 14816 ft | 381 kts | 98° |
| 2026-05-04 04:08 | 33.33588 | -118.31978 | 14717 ft | 380 kts | 98° |
| 2026-05-04 04:09 | 33.33394 | -118.28867 | 14619 ft | 378 kts | 98° |
| 2026-05-04 04:09 | 33.33207 | -118.25725 | 14496 ft | 377 kts | 98° |
| 2026-05-04 04:09 | 33.33023 | -118.22581 | 14414 ft | 376 kts | 97° |
| 2026-05-04 04:09 | 33.32843 | -118.19465 | 14317 ft | 375 kts | 97° |
| 2026-05-04 04:10 | 33.32666 | -118.16388 | 14214 ft | 374 kts | 97° |
| 2026-05-04 04:10 | 33.32506 | -118.13273 | 14105 ft | 374 kts | 95° |
| 2026-05-04 04:10 | 33.32844 | -118.10183 | 14006 ft | 378 kts | 73° |
| 2026-05-04 04:10 | 33.34098 | -118.07433 | 13729 ft | 377 kts | 51° |
| 2026-05-04 04:11 | 33.35859 | -118.05156 | 13157 ft | 376 kts | 44° |
| 2026-05-04 04:11 | 33.37711 | -118.02955 | 12635 ft | 373 kts | 44° |
| 2026-05-04 04:11 | 33.39661 | -118.00952 | 12207 ft | 366 kts | 31° |
| 2026-05-04 04:11 | 33.41995 | -117.99881 | 12009 ft | 357 kts | 5° |
| 2026-05-04 04:12 | 33.44414 | -117.99752 | 11613 ft | 349 kts | 355° |
| 2026-05-04 04:12 | 33.46848 | -117.99881 | 11004 ft | 349 kts | 353° |
| 2026-05-04 04:12 | 33.49258 | -118.00031 | 10600 ft | 340 kts | 353° |
| 2026-05-04 04:12 | 33.51536 | -118.00156 | 10365 ft | 315 kts | 354° |
| 2026-05-04 04:13 | 33.53702 | -118.00271 | 10028 ft | 309 kts | 353° |
| 2026-05-04 04:13 | 33.55851 | -118.00385 | 9579 ft | 307 kts | 354° |
| 2026-05-04 04:13 | 33.57932 | -118.00491 | 9160 ft | 299 kts | 354° |
| 2026-05-04 04:13 | 33.60012 | -118.00601 | 8840 ft | 297 kts | 354° |
| 2026-05-04 04:14 | 33.62079 | -118.00695 | 8432 ft | 294 kts | 354° |
| 2026-05-04 04:14 | 33.64110 | -118.00801 | 8096 ft | 289 kts | 353° |
| 2026-05-04 04:14 | 33.66057 | -118.01238 | 7887 ft | 279 kts | 342° |
| 2026-05-04 04:14 | 33.67850 | -118.01835 | 7782 ft | 254 kts | 341° |
| 2026-05-04 04:15 | 33.69491 | -118.02404 | 7675 ft | 241 kts | 340° |
| 2026-05-04 04:15 | 33.71066 | -118.02954 | 7550 ft | 237 kts | 340° |
| 2026-05-04 04:15 | 33.72652 | -118.03508 | 7416 ft | 236 kts | 340° |
| 2026-05-04 04:15 | 33.74235 | -118.04058 | 7285 ft | 236 kts | 341° |
| 2026-05-04 04:16 | 33.75816 | -118.04606 | 7116 ft | 235 kts | 341° |
| 2026-05-04 04:16 | 33.77367 | -118.05143 | 6996 ft | 234 kts | 341° |
| 2026-05-04 04:16 | 33.78909 | -118.05757 | 6850 ft | 233 kts | 336° |
| 2026-05-04 04:16 | 33.80416 | -118.06462 | 6592 ft | 231 kts | 335° |
| 2026-05-04 04:17 | 33.81906 | -118.07179 | 6291 ft | 229 kts | 335° |
| 2026-05-04 04:17 | 33.83377 | -118.07887 | 5997 ft | 227 kts | 335° |
| 2026-05-04 04:17 | 33.84825 | -118.08582 | 5724 ft | 227 kts | 336° |
| 2026-05-04 04:17 | 33.86303 | -118.09293 | 5453 ft | 229 kts | 336° |
| 2026-05-04 04:18 | 33.87789 | -118.10006 | 5191 ft | 229 kts | 337° |
| 2026-05-04 04:18 | 33.89303 | -118.10617 | 4950 ft | 229 kts | 348° |
| 2026-05-04 04:18 | 33.90867 | -118.10832 | 4733 ft | 229 kts | 356° |
| 2026-05-04 04:18 | 33.92446 | -118.11029 | 4570 ft | 224 kts | 346° |
| 2026-05-04 04:19 | 33.93816 | -118.11825 | 4426 ft | 214 kts | 323° |
| 2026-05-04 04:19 | 33.94975 | -118.12885 | 4400 ft | 203 kts | 318° |
| 2026-05-04 04:19 | 33.95671 | -118.14243 | 4205 ft | 183 kts | 284° |
| 2026-05-04 04:19 | 33.95931 | -118.15701 | 3896 ft | 173 kts | 272° |
| 2026-05-04 04:20 | 33.95884 | -118.17092 | 3661 ft | 161 kts | 262° |
| 2026-05-04 04:20 | 33.95766 | -118.18409 | 3414 ft | 155 kts | 262° |
| 2026-05-04 04:20 | 33.95648 | -118.19666 | 3171 ft | 145 kts | 261° |
| 2026-05-04 04:20 | 33.95528 | -118.20831 | 2979 ft | 136 kts | 262° |
| 2026-05-04 04:21 | 33.95414 | -118.21957 | 2807 ft | 135 kts | 262° |
| 2026-05-04 04:21 | 33.95301 | -118.23065 | 2635 ft | 136 kts | 262° |
| 2026-05-04 04:21 | 33.95185 | -118.24196 | 2445 ft | 136 kts | 262° |
| 2026-05-04 04:21 | 33.95068 | -118.25330 | 2260 ft | 136 kts | 263° |
| 2026-05-04 04:22 | 33.94953 | -118.26457 | 2082 ft | 134 kts | 262° |
| 2026-05-04 04:22 | 33.94838 | -118.27573 | 1896 ft | 133 kts | 262° |
| 2026-05-04 04:22 | 33.94726 | -118.28662 | 1717 ft | 129 kts | 263° |
| 2026-05-04 04:22 | 33.94653 | -118.29373 | 1605 ft | 128 kts | 263° |
| 2026-05-04 04:23 | 33.94545 | -118.30430 | 1432 ft | 127 kts | 262° |
| 2026-05-04 04:23 | 33.94434 | -118.31502 | 1254 ft | 131 kts | 262° |
| 2026-05-04 04:23 | 33.94319 | -118.32615 | 1070 ft | 135 kts | 262° |
| 2026-05-04 04:23 | 33.94205 | -118.33727 | 873 ft | 135 kts | 263° |
| 2026-05-04 04:24 | 33.94093 | -118.34845 | 745 ft | 133 kts | 264° |
| 2026-05-04 04:24 | 33.93981 | -118.35958 | 579 ft | 134 kts | 263° |
| 2026-05-04 04:24 | 33.93853 | -118.37094 | 314 ft | 136 kts | 265° |
| 2026-05-04 04:24 | 33.93740 | -118.38205 | 161 ft | 134 kts | 263° |
| 2026-05-04 04:25 | 33.93635 | -118.39278 | 102 ft | 112 kts | 262° |
| 2026-05-04 04:25 | 33.93564 | -118.39953 | 104 ft | 50 kts | 263° |
| 2026-05-04 04:25 | 33.93533 | -118.40327 | 104 ft | 42 kts | 270° |
| 2026-05-04 04:25 | 33.93578 | -118.40587 | 104 ft | 18 kts | 291° |
| 2026-05-04 04:26 | 33.93601 | -118.40718 | 102 ft | 13 kts | 262° |
| 2026-05-04 04:26 | 33.93598 | -118.40739 | 102 ft | 1 kts | 262° |
| 2026-05-04 04:26 | 33.93594 | -118.40774 | 103 ft | 8 kts | 262° |
| 2026-05-04 04:26 | 33.93614 | -118.40858 | 102 ft | 13 kts | 300° |
| 2026-05-04 04:27 | 33.93690 | -118.40904 | 102 ft | 15 kts | 357° |
| 2026-05-04 04:27 | 33.93790 | -118.40865 | 103 ft | 14 kts | 74° |
| 2026-05-04 04:27 | 33.93801 | -118.40731 | 102 ft | 20 kts | 83° |
| 2026-05-04 04:27 | 33.93824 | -118.40538 | 103 ft | 25 kts | 83° |
| 2026-05-04 04:28 | 33.93840 | -118.40367 | 103 ft | 16 kts | 82° |
| 2026-05-04 04:28 | 33.93857 | -118.40193 | 102 ft | 26 kts | 84° |
| 2026-05-04 04:28 | 33.93896 | -118.40046 | 104 ft | 11 kts | 28° |
| 2026-05-04 04:28 | 33.93976 | -118.40046 | 100 ft | 12 kts | 4° |
| 2026-05-04 04:29 | 33.94028 | -118.39993 | 103 ft | 4 kts | 51° |
| 2026-05-04 04:29 | 33.94031 | -118.39988 | 102 ft | 0 kts | 50° |